PWSweather.com
Personal Weather Stations
Station Observations
EI4HQ
Cork Harbour, CobhIE

Cork HarbourCobhIE

Lat: 51.85, Lon: -8.29

Elevation: 252

Station Type: Davis Vantage Pro2

http://www.corkharbourweather.ie

High Low Average
Temperature 43.9°F6.6°C 38.1°F3.4°C 39.9°F4.4°C
Dew Point 40.1°F4.5°C 32.5°F0.3°C 36.9°F2.7°C
Winds 21.0 mph 33.8 kmh 3.0 mph 4.8 kmh 11.0 mph E17.7 kmh E
Wind Gusts 38.0 mph61.2 kmh 5.0 mph8.0 kmh 21.0 mph33.8 kmh
Humidity 94% 77% 89%
Pressure 29.85 in1010.8 mb 29.39 in995.3 mb -
Precipitation 0.61 in15.5 mm - -
Hour Temp Dew Point Humidity Winds Wind Gusts Pressure Precip Precip Rate Daily Precip Total
12:00 AM 40.8°F4.9°C 36.0°F2.2°C 83% 4.0 mph NE6.4 kmh NE 6.0 mph9.7 kmh 29.84 in1010.5 mb 0.00 in0.0 mm 0.00 in0.0 mm 0.00 in0.0 mm
12:03 AM 40.8°F4.9°C 36.0°F2.2°C 83% 3.0 mph NE4.8 kmh NE 6.0 mph9.7 kmh 29.84 in1010.5 mb 0.00 in0.0 mm 0.00 in0.0 mm 0.00 in0.0 mm
12:06 AM 40.6°F4.8°C 35.8°F2.1°C 83% 4.0 mph NE6.4 kmh NE 6.0 mph9.7 kmh 29.84 in1010.5 mb 0.00 in0.0 mm 0.00 in0.0 mm 0.00 in0.0 mm
12:09 AM 40.5°F4.7°C 35.8°F2.1°C 83% 4.0 mph NE6.4 kmh NE 6.0 mph9.7 kmh 29.84 in1010.5 mb 0.00 in0.0 mm 0.00 in0.0 mm 0.00 in0.0 mm
12:12 AM 40.5°F4.7°C 36.0°F2.2°C 84% 3.0 mph NE4.8 kmh NE 5.0 mph8.0 kmh 29.84 in1010.5 mb 0.00 in0.0 mm 0.00 in0.0 mm 0.00 in0.0 mm
12:15 AM 40.3°F4.6°C 35.8°F2.1°C 84% 3.0 mph NE4.8 kmh NE 6.0 mph9.7 kmh 29.85 in1010.8 mb 0.00 in0.0 mm 0.00 in0.0 mm 0.00 in0.0 mm
12:18 AM 40.3°F4.6°C 35.8°F2.1°C 84% 3.0 mph NE4.8 kmh NE 6.0 mph9.7 kmh 29.84 in1010.5 mb 0.00 in0.0 mm 0.00 in0.0 mm 0.00 in0.0 mm
12:21 AM 40.3°F4.6°C 35.8°F2.1°C 84% 4.0 mph NE6.4 kmh NE 6.0 mph9.7 kmh 29.85 in1010.8 mb 0.00 in0.0 mm 0.00 in0.0 mm 0.00 in0.0 mm
12:24 AM 40.3°F4.6°C 35.8°F2.1°C 84% 4.0 mph NE6.4 kmh NE 6.0 mph9.7 kmh 29.85 in1010.8 mb 0.00 in0.0 mm 0.00 in0.0 mm 0.00 in0.0 mm
12:27 AM 40.3°F4.6°C 35.8°F2.1°C 84% 4.0 mph NE6.4 kmh NE 6.0 mph9.7 kmh 29.84 in1010.5 mb 0.00 in0.0 mm 0.00 in0.0 mm 0.00 in0.0 mm
12:30 AM 40.1°F4.5°C 35.6°F2.0°C 84% 4.0 mph NE6.4 kmh NE 6.0 mph9.7 kmh 29.84 in1010.5 mb 0.00 in0.0 mm 0.00 in0.0 mm 0.00 in0.0 mm
12:33 AM 39.9°F4.4°C 35.6°F2.0°C 84% 4.0 mph NE6.4 kmh NE 6.0 mph9.7 kmh 29.84 in1010.5 mb 0.00 in0.0 mm 0.00 in0.0 mm 0.00 in0.0 mm
12:36 AM 39.9°F4.4°C 35.6°F2.0°C 84% 4.0 mph NE6.4 kmh NE 8.0 mph12.9 kmh 29.84 in1010.5 mb 0.00 in0.0 mm 0.00 in0.0 mm 0.00 in0.0 mm
12:39 AM 39.9°F4.4°C 35.4°F1.9°C 84% 5.0 mph NE8.0 kmh NE 8.0 mph12.9 kmh 29.84 in1010.5 mb 0.00 in0.0 mm 0.00 in0.0 mm 0.00 in0.0 mm
12:42 AM 39.7°F4.3°C 35.4°F1.9°C 84% 5.0 mph NE8.0 kmh NE 8.0 mph12.9 kmh 29.84 in1010.5 mb 0.00 in0.0 mm 0.00 in0.0 mm 0.00 in0.0 mm
12:45 AM 39.9°F4.4°C 35.8°F2.1°C 85% 5.0 mph NE8.0 kmh NE 9.0 mph14.5 kmh 29.84 in1010.5 mb 0.00 in0.0 mm 0.00 in0.0 mm 0.00 in0.0 mm
12:48 AM 39.9°F4.4°C 35.4°F1.9°C 84% 5.0 mph NE8.0 kmh NE 9.0 mph14.5 kmh 29.84 in1010.5 mb 0.00 in0.0 mm 0.00 in0.0 mm 0.00 in0.0 mm
12:51 AM 39.9°F4.4°C 35.4°F1.9°C 84% 5.0 mph NE8.0 kmh NE 9.0 mph14.5 kmh 29.84 in1010.5 mb 0.00 in0.0 mm 0.00 in0.0 mm 0.00 in0.0 mm
12:54 AM 39.7°F4.3°C 35.6°F2.0°C 85% 6.0 mph NE9.7 kmh NE 10.0 mph16.1 kmh 29.84 in1010.5 mb 0.00 in0.0 mm 0.00 in0.0 mm 0.00 in0.0 mm
12:57 AM 39.7°F4.3°C 35.6°F2.0°C 85% 7.0 mph NE11.3 kmh NE 10.0 mph16.1 kmh 29.84 in1010.5 mb 0.00 in0.0 mm 0.00 in0.0 mm 0.00 in0.0 mm
01:00 AM 39.7°F4.3°C 35.6°F2.0°C 85% 7.0 mph NE11.3 kmh NE 11.0 mph17.7 kmh 29.83 in1010.2 mb 0.00 in0.0 mm 0.00 in0.0 mm 0.00 in0.0 mm
01:03 AM 39.6°F4.2°C 35.4°F1.9°C 85% 7.0 mph NE11.3 kmh NE 11.0 mph17.7 kmh 29.84 in1010.5 mb 0.00 in0.0 mm 0.00 in0.0 mm 0.00 in0.0 mm
01:06 AM 39.4°F4.1°C 35.2°F1.8°C 85% 7.0 mph NE11.3 kmh NE 11.0 mph17.7 kmh 29.84 in1010.5 mb 0.00 in0.0 mm 0.00 in0.0 mm 0.00 in0.0 mm
01:09 AM 39.4°F4.1°C 35.2°F1.8°C 85% 6.0 mph NE9.7 kmh NE 11.0 mph17.7 kmh 29.84 in1010.5 mb 0.00 in0.0 mm 0.00 in0.0 mm 0.00 in0.0 mm
01:12 AM 39.2°F4.0°C 35.1°F1.7°C 85% 6.0 mph NE9.7 kmh NE 10.0 mph16.1 kmh 29.84 in1010.5 mb 0.00 in0.0 mm 0.00 in0.0 mm 0.00 in0.0 mm
01:15 AM 39.0°F3.9°C 34.9°F1.6°C 85% 6.0 mph NE9.7 kmh NE 10.0 mph16.1 kmh 29.84 in1010.5 mb 0.00 in0.0 mm 0.00 in0.0 mm 0.00 in0.0 mm
01:18 AM 38.8°F3.8°C 34.7°F1.5°C 85% 6.0 mph NE9.7 kmh NE 10.0 mph16.1 kmh 29.83 in1010.2 mb 0.00 in0.0 mm 0.00 in0.0 mm 0.00 in0.0 mm
01:21 AM 38.7°F3.7°C 34.5°F1.4°C 85% 7.0 mph NE11.3 kmh NE 10.0 mph16.1 kmh 29.83 in1010.2 mb 0.00 in0.0 mm 0.00 in0.0 mm 0.00 in0.0 mm
01:24 AM 38.7°F3.7°C 34.5°F1.4°C 85% 7.0 mph NE11.3 kmh NE 11.0 mph17.7 kmh 29.83 in1010.2 mb 0.00 in0.0 mm 0.00 in0.0 mm 0.00 in0.0 mm
01:27 AM 38.8°F3.8°C 34.7°F1.5°C 85% 7.0 mph NE11.3 kmh NE 13.0 mph20.9 kmh 29.83 in1010.2 mb 0.00 in0.0 mm 0.00 in0.0 mm 0.00 in0.0 mm
01:30 AM 38.8°F3.8°C 34.7°F1.5°C 85% 7.0 mph NE11.3 kmh NE 13.0 mph20.9 kmh 29.83 in1010.2 mb 0.00 in0.0 mm 0.00 in0.0 mm 0.00 in0.0 mm
01:33 AM 38.8°F3.8°C 34.7°F1.5°C 85% 7.0 mph NE11.3 kmh NE 13.0 mph20.9 kmh 29.83 in1010.2 mb 0.00 in0.0 mm 0.00 in0.0 mm 0.00 in0.0 mm
01:36 AM 38.8°F3.8°C 34.7°F1.5°C 85% 7.0 mph NE11.3 kmh NE 13.0 mph20.9 kmh 29.83 in1010.2 mb 0.00 in0.0 mm 0.00 in0.0 mm 0.00 in0.0 mm
01:39 AM 38.8°F3.8°C 34.3°F1.3°C 84% 6.0 mph NE9.7 kmh NE 11.0 mph17.7 kmh 29.83 in1010.2 mb 0.00 in0.0 mm 0.00 in0.0 mm 0.00 in0.0 mm
01:42 AM 38.8°F3.8°C 34.3°F1.3°C 84% 6.0 mph NE9.7 kmh NE 10.0 mph16.1 kmh 29.83 in1010.2 mb 0.00 in0.0 mm 0.00 in0.0 mm 0.00 in0.0 mm
01:45 AM 38.8°F3.8°C 34.3°F1.3°C 84% 6.0 mph NE9.7 kmh NE 11.0 mph17.7 kmh 29.83 in1010.2 mb 0.00 in0.0 mm 0.00 in0.0 mm 0.00 in0.0 mm
01:48 AM 38.8°F3.8°C 34.2°F1.2°C 83% 6.0 mph NE9.7 kmh NE 14.0 mph22.5 kmh 29.83 in1010.2 mb 0.00 in0.0 mm 0.00 in0.0 mm 0.00 in0.0 mm
01:51 AM 38.8°F3.8°C 33.8°F1.0°C 82% 6.0 mph NE9.7 kmh NE 14.0 mph22.5 kmh 29.83 in1010.2 mb 0.00 in0.0 mm 0.00 in0.0 mm 0.00 in0.0 mm
01:54 AM 39.0°F3.9°C 34.0°F1.1°C 82% 7.0 mph ENE11.3 kmh ENE 14.0 mph22.5 kmh 29.83 in1010.2 mb 0.00 in0.0 mm 0.00 in0.0 mm 0.00 in0.0 mm
01:57 AM 39.0°F3.9°C 33.8°F1.0°C 81% 7.0 mph ENE11.3 kmh ENE 12.0 mph19.3 kmh 29.83 in1010.2 mb 0.00 in0.0 mm 0.00 in0.0 mm 0.00 in0.0 mm
02:00 AM 39.0°F3.9°C 33.8°F1.0°C 81% 7.0 mph ENE11.3 kmh ENE 12.0 mph19.3 kmh 29.83 in1010.2 mb 0.00 in0.0 mm 0.00 in0.0 mm 0.00 in0.0 mm
02:03 AM 39.2°F4.0°C 33.6°F0.9°C 80% 7.0 mph ENE11.3 kmh ENE 12.0 mph19.3 kmh 29.83 in1010.2 mb 0.00 in0.0 mm 0.00 in0.0 mm 0.00 in0.0 mm
02:06 AM 39.4°F4.1°C 33.8°F1.0°C 80% 7.0 mph ENE11.3 kmh ENE 12.0 mph19.3 kmh 29.83 in1010.2 mb 0.00 in0.0 mm 0.00 in0.0 mm 0.00 in0.0 mm
02:09 AM 39.4°F4.1°C 33.4°F0.8°C 79% 6.0 mph ENE9.7 kmh ENE 12.0 mph19.3 kmh 29.83 in1010.2 mb 0.00 in0.0 mm 0.00 in0.0 mm 0.00 in0.0 mm
02:12 AM 39.6°F4.2°C 33.4°F0.8°C 79% 6.0 mph ENE9.7 kmh ENE 12.0 mph19.3 kmh 29.83 in1010.2 mb 0.00 in0.0 mm 0.00 in0.0 mm 0.00 in0.0 mm
02:15 AM 39.6°F4.2°C 33.4°F0.8°C 79% 6.0 mph ENE9.7 kmh ENE 12.0 mph19.3 kmh 29.83 in1010.2 mb 0.00 in0.0 mm 0.00 in0.0 mm 0.00 in0.0 mm
02:18 AM 39.6°F4.2°C 33.6°F0.9°C 79% 5.0 mph ENE8.0 kmh ENE 12.0 mph19.3 kmh 29.83 in1010.2 mb 0.00 in0.0 mm 0.00 in0.0 mm 0.00 in0.0 mm
02:21 AM 39.6°F4.2°C 33.3°F0.7°C 78% 6.0 mph ENE9.7 kmh ENE 12.0 mph19.3 kmh 29.83 in1010.2 mb 0.00 in0.0 mm 0.00 in0.0 mm 0.00 in0.0 mm
02:24 AM 39.6°F4.2°C 33.3°F0.7°C 78% 6.0 mph ENE9.7 kmh ENE 12.0 mph19.3 kmh 29.83 in1010.2 mb 0.00 in0.0 mm 0.00 in0.0 mm 0.00 in0.0 mm
02:27 AM 39.6°F4.2°C 33.3°F0.7°C 78% 6.0 mph ENE9.7 kmh ENE 12.0 mph19.3 kmh 29.83 in1010.2 mb 0.00 in0.0 mm 0.00 in0.0 mm 0.00 in0.0 mm
02:30 AM 39.4°F4.1°C 33.1°F0.6°C 78% 6.0 mph ENE9.7 kmh ENE 11.0 mph17.7 kmh 29.83 in1010.2 mb 0.00 in0.0 mm 0.00 in0.0 mm 0.00 in0.0 mm
02:33 AM 39.4°F4.1°C 33.1°F0.6°C 78% 6.0 mph ENE9.7 kmh ENE 12.0 mph19.3 kmh 29.83 in1010.2 mb 0.00 in0.0 mm 0.00 in0.0 mm 0.00 in0.0 mm
02:36 AM 39.4°F4.1°C 33.1°F0.6°C 78% 6.0 mph ENE9.7 kmh ENE 12.0 mph19.3 kmh 29.83 in1010.2 mb 0.00 in0.0 mm 0.00 in0.0 mm 0.00 in0.0 mm
02:39 AM 39.2°F4.0°C 32.9°F0.5°C 78% 6.0 mph ENE9.7 kmh ENE 12.0 mph19.3 kmh 29.83 in1010.2 mb 0.00 in0.0 mm 0.00 in0.0 mm 0.00 in0.0 mm
02:42 AM 39.0°F3.9°C 33.1°F0.6°C 79% 6.0 mph ENE9.7 kmh ENE 11.0 mph17.7 kmh 29.83 in1010.2 mb 0.00 in0.0 mm 0.00 in0.0 mm 0.00 in0.0 mm
02:45 AM 39.0°F3.9°C 33.1°F0.6°C 79% 6.0 mph ENE9.7 kmh ENE 11.0 mph17.7 kmh 29.83 in1010.2 mb 0.00 in0.0 mm 0.00 in0.0 mm 0.00 in0.0 mm
02:48 AM 39.0°F3.9°C 33.1°F0.6°C 79% 6.0 mph ENE9.7 kmh ENE 10.0 mph16.1 kmh 29.83 in1010.2 mb 0.00 in0.0 mm 0.00 in0.0 mm 0.00 in0.0 mm
02:51 AM 39.0°F3.9°C 33.1°F0.6°C 79% 6.0 mph ENE9.7 kmh ENE 11.0 mph17.7 kmh 29.83 in1010.2 mb 0.00 in0.0 mm 0.00 in0.0 mm 0.00 in0.0 mm
02:54 AM 39.0°F3.9°C 33.1°F0.6°C 79% 6.0 mph ENE9.7 kmh ENE 11.0 mph17.7 kmh 29.83 in1010.2 mb 0.00 in0.0 mm 0.00 in0.0 mm 0.00 in0.0 mm
02:57 AM 39.0°F3.9°C 33.1°F0.6°C 79% 6.0 mph ENE9.7 kmh ENE 11.0 mph17.7 kmh 29.83 in1010.2 mb 0.00 in0.0 mm 0.00 in0.0 mm 0.00 in0.0 mm
03:00 AM 39.0°F3.9°C 32.7°F0.4°C 78% 6.0 mph ENE9.7 kmh ENE 12.0 mph19.3 kmh 29.83 in1010.2 mb 0.00 in0.0 mm 0.00 in0.0 mm 0.00 in0.0 mm
03:03 AM 39.0°F3.9°C 32.7°F0.4°C 78% 6.0 mph ENE9.7 kmh ENE 12.0 mph19.3 kmh 29.83 in1010.2 mb 0.00 in0.0 mm 0.00 in0.0 mm 0.00 in0.0 mm
03:06 AM 39.0°F3.9°C 32.7°F0.4°C 78% 6.0 mph ENE9.7 kmh ENE 12.0 mph19.3 kmh 29.82 in1009.8 mb 0.00 in0.0 mm 0.00 in0.0 mm 0.00 in0.0 mm
03:09 AM 39.0°F3.9°C 32.9°F0.5°C 78% 6.0 mph ENE9.7 kmh ENE 14.0 mph22.5 kmh 29.82 in1009.8 mb 0.00 in0.0 mm 0.00 in0.0 mm 0.00 in0.0 mm
03:12 AM 39.0°F3.9°C 32.9°F0.5°C 78% 5.0 mph ENE8.0 kmh ENE 14.0 mph22.5 kmh 29.82 in1009.8 mb 0.00 in0.0 mm 0.00 in0.0 mm 0.00 in0.0 mm
03:15 AM 39.0°F3.9°C 32.9°F0.5°C 78% 6.0 mph ENE9.7 kmh ENE 14.0 mph22.5 kmh 29.82 in1009.8 mb 0.00 in0.0 mm 0.00 in0.0 mm 0.00 in0.0 mm
03:18 AM 39.2°F4.0°C 32.9°F0.5°C 78% 6.0 mph ENE9.7 kmh ENE 13.0 mph20.9 kmh 29.82 in1009.8 mb 0.00 in0.0 mm 0.00 in0.0 mm 0.00 in0.0 mm
03:21 AM 39.4°F4.1°C 33.1°F0.6°C 78% 6.0 mph ENE9.7 kmh ENE 13.0 mph20.9 kmh 29.82 in1009.8 mb 0.00 in0.0 mm 0.00 in0.0 mm 0.00 in0.0 mm
03:24 AM 39.4°F4.1°C 32.7°F0.4°C 77% 6.0 mph ENE9.7 kmh ENE 13.0 mph20.9 kmh 29.82 in1009.8 mb 0.00 in0.0 mm 0.00 in0.0 mm 0.00 in0.0 mm
03:27 AM 39.4°F4.1°C 32.7°F0.4°C 77% 6.0 mph ENE9.7 kmh ENE 13.0 mph20.9 kmh 29.82 in1009.8 mb 0.00 in0.0 mm 0.00 in0.0 mm 0.00 in0.0 mm
03:30 AM 39.4°F4.1°C 32.7°F0.4°C 77% 6.0 mph ENE9.7 kmh ENE 13.0 mph20.9 kmh 29.82 in1009.8 mb 0.00 in0.0 mm 0.00 in0.0 mm 0.00 in0.0 mm
03:33 AM 39.4°F4.1°C 32.7°F0.4°C 77% 5.0 mph ENE8.0 kmh ENE 12.0 mph19.3 kmh 29.82 in1009.8 mb 0.00 in0.0 mm 0.00 in0.0 mm 0.00 in0.0 mm
03:36 AM 39.2°F4.0°C 32.5°F0.3°C 77% 5.0 mph ENE8.0 kmh ENE 12.0 mph19.3 kmh 29.82 in1009.8 mb 0.00 in0.0 mm 0.00 in0.0 mm 0.00 in0.0 mm
03:39 AM 39.0°F3.9°C 32.5°F0.3°C 77% 5.0 mph ENE8.0 kmh ENE 12.0 mph19.3 kmh 29.82 in1009.8 mb 0.00 in0.0 mm 0.00 in0.0 mm 0.00 in0.0 mm
03:42 AM 39.0°F3.9°C 32.7°F0.4°C 78% 5.0 mph ENE8.0 kmh ENE 12.0 mph19.3 kmh 29.82 in1009.8 mb 0.00 in0.0 mm 0.00 in0.0 mm 0.00 in0.0 mm
03:45 AM 38.8°F3.8°C 32.5°F0.3°C 78% 5.0 mph ENE8.0 kmh ENE 11.0 mph17.7 kmh 29.82 in1009.8 mb 0.00 in0.0 mm 0.00 in0.0 mm 0.00 in0.0 mm
03:48 AM 38.8°F3.8°C 32.9°F0.5°C 79% 6.0 mph ENE9.7 kmh ENE 10.0 mph16.1 kmh 29.82 in1009.8 mb 0.00 in0.0 mm 0.00 in0.0 mm 0.00 in0.0 mm
03:51 AM 38.7°F3.7°C 32.7°F0.4°C 79% 6.0 mph ENE9.7 kmh ENE 10.0 mph16.1 kmh 29.82 in1009.8 mb 0.00 in0.0 mm 0.00 in0.0 mm 0.00 in0.0 mm
03:54 AM 38.7°F3.7°C 32.7°F0.4°C 79% 5.0 mph ENE8.0 kmh ENE 11.0 mph17.7 kmh 29.82 in1009.8 mb 0.00 in0.0 mm 0.00 in0.0 mm 0.00 in0.0 mm
03:57 AM 38.7°F3.7°C 33.1°F0.6°C 80% 5.0 mph ENE8.0 kmh ENE 11.0 mph17.7 kmh 29.82 in1009.8 mb 0.00 in0.0 mm 0.00 in0.0 mm 0.00 in0.0 mm
04:00 AM 38.7°F3.7°C 33.1°F0.6°C 80% 5.0 mph ENE8.0 kmh ENE 11.0 mph17.7 kmh 29.82 in1009.8 mb 0.00 in0.0 mm 0.00 in0.0 mm 0.00 in0.0 mm
04:03 AM 38.7°F3.7°C 33.1°F0.6°C 80% 5.0 mph ENE8.0 kmh ENE 11.0 mph17.7 kmh 29.82 in1009.8 mb 0.00 in0.0 mm 0.00 in0.0 mm 0.00 in0.0 mm
04:06 AM 38.7°F3.7°C 33.1°F0.6°C 80% 4.0 mph ENE6.4 kmh ENE 9.0 mph14.5 kmh 29.82 in1009.8 mb 0.00 in0.0 mm 0.00 in0.0 mm 0.00 in0.0 mm
04:09 AM 38.7°F3.7°C 33.1°F0.6°C 80% 4.0 mph E6.4 kmh E 10.0 mph16.1 kmh 29.82 in1009.8 mb 0.00 in0.0 mm 0.00 in0.0 mm 0.00 in0.0 mm
04:12 AM 38.7°F3.7°C 33.1°F0.6°C 80% 5.0 mph E8.0 kmh E 10.0 mph16.1 kmh 29.82 in1009.8 mb 0.00 in0.0 mm 0.00 in0.0 mm 0.00 in0.0 mm
04:15 AM 38.8°F3.8°C 33.4°F0.8°C 81% 5.0 mph E8.0 kmh E 11.0 mph17.7 kmh 29.82 in1009.8 mb 0.00 in0.0 mm 0.00 in0.0 mm 0.00 in0.0 mm
04:18 AM 38.8°F3.8°C 33.6°F0.9°C 81% 5.0 mph ENE8.0 kmh ENE 12.0 mph19.3 kmh 29.82 in1009.8 mb 0.00 in0.0 mm 0.00 in0.0 mm 0.00 in0.0 mm
04:21 AM 39.0°F3.9°C 33.6°F0.9°C 81% 5.0 mph ENE8.0 kmh ENE 12.0 mph19.3 kmh 29.82 in1009.8 mb 0.00 in0.0 mm 0.00 in0.0 mm 0.00 in0.0 mm
04:24 AM 38.8°F3.8°C 33.3°F0.7°C 80% 6.0 mph ENE9.7 kmh ENE 12.0 mph19.3 kmh 29.82 in1009.8 mb 0.00 in0.0 mm 0.00 in0.0 mm 0.00 in0.0 mm
04:27 AM 38.8°F3.8°C 33.4°F0.8°C 81% 6.0 mph ENE9.7 kmh ENE 12.0 mph19.3 kmh 29.81 in1009.5 mb 0.00 in0.0 mm 0.00 in0.0 mm 0.00 in0.0 mm
04:30 AM 38.7°F3.7°C 33.4°F0.8°C 81% 5.0 mph ENE8.0 kmh ENE 10.0 mph16.1 kmh 29.81 in1009.5 mb 0.00 in0.0 mm 0.00 in0.0 mm 0.00 in0.0 mm
04:33 AM 38.7°F3.7°C 33.3°F0.7°C 81% 5.0 mph ENE8.0 kmh ENE 10.0 mph16.1 kmh 29.82 in1009.8 mb 0.00 in0.0 mm 0.00 in0.0 mm 0.00 in0.0 mm
04:36 AM 38.7°F3.7°C 33.3°F0.7°C 81% 5.0 mph ENE8.0 kmh ENE 10.0 mph16.1 kmh 29.81 in1009.5 mb 0.00 in0.0 mm 0.00 in0.0 mm 0.00 in0.0 mm
04:39 AM 38.5°F3.6°C 33.3°F0.7°C 81% 5.0 mph ENE8.0 kmh ENE 10.0 mph16.1 kmh 29.81 in1009.5 mb 0.00 in0.0 mm 0.00 in0.0 mm 0.00 in0.0 mm
04:42 AM 38.5°F3.6°C 33.3°F0.7°C 81% 6.0 mph ENE9.7 kmh ENE 11.0 mph17.7 kmh 29.81 in1009.5 mb 0.00 in0.0 mm 0.00 in0.0 mm 0.00 in0.0 mm
04:45 AM 38.3°F3.5°C 32.9°F0.5°C 81% 6.0 mph ENE9.7 kmh ENE 11.0 mph17.7 kmh 29.81 in1009.5 mb 0.00 in0.0 mm 0.00 in0.0 mm 0.00 in0.0 mm
04:48 AM 38.3°F3.5°C 33.3°F0.7°C 82% 6.0 mph NE9.7 kmh NE 11.0 mph17.7 kmh 29.81 in1009.5 mb 0.00 in0.0 mm 0.00 in0.0 mm 0.00 in0.0 mm
04:51 AM 38.1°F3.4°C 33.3°F0.7°C 82% 6.0 mph NE9.7 kmh NE 11.0 mph17.7 kmh 29.81 in1009.5 mb 0.00 in0.0 mm 0.00 in0.0 mm 0.00 in0.0 mm
04:54 AM 38.1°F3.4°C 33.4°F0.8°C 83% 6.0 mph ENE9.7 kmh ENE 11.0 mph17.7 kmh 29.81 in1009.5 mb 0.00 in0.0 mm 0.00 in0.0 mm 0.00 in0.0 mm
04:57 AM 38.1°F3.4°C 33.4°F0.8°C 83% 6.0 mph ENE9.7 kmh ENE 11.0 mph17.7 kmh 29.81 in1009.5 mb 0.00 in0.0 mm 0.00 in0.0 mm 0.00 in0.0 mm
05:00 AM 38.1°F3.4°C 33.4°F0.8°C 83% 7.0 mph ENE11.3 kmh ENE 13.0 mph20.9 kmh 29.81 in1009.5 mb 0.00 in0.0 mm 0.00 in0.0 mm 0.00 in0.0 mm
05:03 AM 38.3°F3.5°C 33.8°F1.0°C 84% 7.0 mph ENE11.3 kmh ENE 14.0 mph22.5 kmh 29.81 in1009.5 mb 0.00 in0.0 mm 0.00 in0.0 mm 0.00 in0.0 mm
05:06 AM 38.5°F3.6°C 34.0°F1.1°C 84% 7.0 mph ENE11.3 kmh ENE 14.0 mph22.5 kmh 29.81 in1009.5 mb 0.00 in0.0 mm 0.00 in0.0 mm 0.00 in0.0 mm
05:09 AM 38.5°F3.6°C 34.2°F1.2°C 84% 7.0 mph ENE11.3 kmh ENE 14.0 mph22.5 kmh 29.81 in1009.5 mb 0.00 in0.0 mm 0.00 in0.0 mm 0.00 in0.0 mm
05:12 AM 38.7°F3.7°C 34.2°F1.2°C 84% 6.0 mph ENE9.7 kmh ENE 14.0 mph22.5 kmh 29.80 in1009.1 mb 0.00 in0.0 mm 0.00 in0.0 mm 0.00 in0.0 mm
05:15 AM 38.7°F3.7°C 34.3°F1.3°C 84% 6.0 mph ENE9.7 kmh ENE 12.0 mph19.3 kmh 29.80 in1009.1 mb 0.00 in0.0 mm 0.00 in0.0 mm 0.00 in0.0 mm
05:18 AM 38.7°F3.7°C 34.3°F1.3°C 84% 6.0 mph ENE9.7 kmh ENE 11.0 mph17.7 kmh 29.81 in1009.5 mb 0.00 in0.0 mm 0.00 in0.0 mm 0.00 in0.0 mm
05:21 AM 38.8°F3.8°C 34.7°F1.5°C 85% 6.0 mph ENE9.7 kmh ENE 11.0 mph17.7 kmh 29.81 in1009.5 mb 0.00 in0.0 mm 0.00 in0.0 mm 0.00 in0.0 mm
05:24 AM 38.7°F3.7°C 34.3°F1.3°C 84% 6.0 mph ENE9.7 kmh ENE 14.0 mph22.5 kmh 29.81 in1009.5 mb 0.00 in0.0 mm 0.00 in0.0 mm 0.00 in0.0 mm
05:27 AM 38.7°F3.7°C 34.5°F1.4°C 85% 6.0 mph ENE9.7 kmh ENE 14.0 mph22.5 kmh 29.81 in1009.5 mb 0.00 in0.0 mm 0.00 in0.0 mm 0.00 in0.0 mm
05:30 AM 38.7°F3.7°C 34.5°F1.4°C 85% 6.0 mph ENE9.7 kmh ENE 14.0 mph22.5 kmh 29.81 in1009.5 mb 0.00 in0.0 mm 0.00 in0.0 mm 0.00 in0.0 mm
05:33 AM 38.7°F3.7°C 34.5°F1.4°C 85% 6.0 mph ENE9.7 kmh ENE 14.0 mph22.5 kmh 29.81 in1009.5 mb 0.00 in0.0 mm 0.00 in0.0 mm 0.00 in0.0 mm
05:36 AM 38.7°F3.7°C 34.5°F1.4°C 85% 6.0 mph ENE9.7 kmh ENE 14.0 mph22.5 kmh 29.81 in1009.5 mb 0.00 in0.0 mm 0.00 in0.0 mm 0.00 in0.0 mm
05:39 AM 38.7°F3.7°C 34.5°F1.4°C 85% 7.0 mph ENE11.3 kmh ENE 14.0 mph22.5 kmh 29.81 in1009.5 mb 0.00 in0.0 mm 0.00 in0.0 mm 0.00 in0.0 mm
05:42 AM 38.7°F3.7°C 34.9°F1.6°C 86% 6.0 mph ENE9.7 kmh ENE 14.0 mph22.5 kmh 29.81 in1009.5 mb 0.00 in0.0 mm 0.00 in0.0 mm 0.00 in0.0 mm
05:45 AM 38.7°F3.7°C 34.9°F1.6°C 86% 6.0 mph ENE9.7 kmh ENE 15.0 mph24.1 kmh 29.81 in1009.5 mb 0.00 in0.0 mm 0.00 in0.0 mm 0.00 in0.0 mm
05:48 AM 38.7°F3.7°C 34.5°F1.4°C 85% 6.0 mph ENE9.7 kmh ENE 15.0 mph24.1 kmh 29.81 in1009.5 mb 0.00 in0.0 mm 0.00 in0.0 mm 0.00 in0.0 mm
05:51 AM 38.7°F3.7°C 34.5°F1.4°C 85% 6.0 mph ENE9.7 kmh ENE 15.0 mph24.1 kmh 29.81 in1009.5 mb 0.00 in0.0 mm 0.00 in0.0 mm 0.00 in0.0 mm
05:54 AM 38.7°F3.7°C 34.7°F1.5°C 86% 6.0 mph ENE9.7 kmh ENE 12.0 mph19.3 kmh 29.81 in1009.5 mb 0.00 in0.0 mm 0.00 in0.0 mm 0.00 in0.0 mm
05:57 AM 38.7°F3.7°C 34.7°F1.5°C 86% 6.0 mph ENE9.7 kmh ENE 12.0 mph19.3 kmh 29.81 in1009.5 mb 0.00 in0.0 mm 0.00 in0.0 mm 0.00 in0.0 mm
06:00 AM 38.7°F3.7°C 34.7°F1.5°C 86% 5.0 mph ENE8.0 kmh ENE 12.0 mph19.3 kmh 29.81 in1009.5 mb 0.00 in0.0 mm 0.00 in0.0 mm 0.00 in0.0 mm
06:03 AM 38.7°F3.7°C 34.9°F1.6°C 86% 6.0 mph ENE9.7 kmh ENE 12.0 mph19.3 kmh 29.81 in1009.5 mb 0.00 in0.0 mm 0.00 in0.0 mm 0.00 in0.0 mm
06:06 AM 38.7°F3.7°C 34.9°F1.6°C 86% 6.0 mph ENE9.7 kmh ENE 13.0 mph20.9 kmh 29.81 in1009.5 mb 0.00 in0.0 mm 0.00 in0.0 mm 0.00 in0.0 mm
06:09 AM 38.7°F3.7°C 34.9°F1.6°C 86% 6.0 mph ENE9.7 kmh ENE 13.0 mph20.9 kmh 29.81 in1009.5 mb 0.00 in0.0 mm 0.00 in0.0 mm 0.00 in0.0 mm
06:12 AM 38.7°F3.7°C 34.9°F1.6°C 86% 7.0 mph ENE11.3 kmh ENE 13.0 mph20.9 kmh 29.81 in1009.5 mb 0.00 in0.0 mm 0.00 in0.0 mm 0.00 in0.0 mm
06:15 AM 38.7°F3.7°C 34.9°F1.6°C 86% 6.0 mph ENE9.7 kmh ENE 12.0 mph19.3 kmh 29.81 in1009.5 mb 0.00 in0.0 mm 0.00 in0.0 mm 0.00 in0.0 mm
06:18 AM 38.8°F3.8°C 35.1°F1.7°C 86% 6.0 mph E9.7 kmh E 12.0 mph19.3 kmh 29.81 in1009.5 mb 0.00 in0.0 mm 0.00 in0.0 mm 0.00 in0.0 mm
06:21 AM 38.8°F3.8°C 35.2°F1.8°C 87% 6.0 mph ENE9.7 kmh ENE 12.0 mph19.3 kmh 29.81 in1009.5 mb 0.00 in0.0 mm 0.00 in0.0 mm 0.00 in0.0 mm
06:24 AM 38.8°F3.8°C 35.4°F1.9°C 87% 6.0 mph ENE9.7 kmh ENE 12.0 mph19.3 kmh 29.81 in1009.5 mb 0.00 in0.0 mm 0.00 in0.0 mm 0.00 in0.0 mm
06:27 AM 39.0°F3.9°C 35.4°F1.9°C 87% 7.0 mph ENE11.3 kmh ENE 13.0 mph20.9 kmh 29.81 in1009.5 mb 0.00 in0.0 mm 0.00 in0.0 mm 0.00 in0.0 mm
06:30 AM 39.0°F3.9°C 35.6°F2.0°C 87% 7.0 mph ENE11.3 kmh ENE 13.0 mph20.9 kmh 29.81 in1009.5 mb 0.00 in0.0 mm 0.00 in0.0 mm 0.00 in0.0 mm
06:33 AM 39.0°F3.9°C 35.6°F2.0°C 87% 6.0 mph ENE9.7 kmh ENE 15.0 mph24.1 kmh 29.81 in1009.5 mb 0.00 in0.0 mm 0.00 in0.0 mm 0.00 in0.0 mm
06:36 AM 39.0°F3.9°C 35.2°F1.8°C 86% 6.0 mph ENE9.7 kmh ENE 15.0 mph24.1 kmh 29.81 in1009.5 mb 0.00 in0.0 mm 0.00 in0.0 mm 0.00 in0.0 mm
06:39 AM 39.2°F4.0°C 35.6°F2.0°C 87% 6.0 mph ENE9.7 kmh ENE 15.0 mph24.1 kmh 29.81 in1009.5 mb 0.00 in0.0 mm 0.00 in0.0 mm 0.00 in0.0 mm
06:42 AM 39.2°F4.0°C 35.6°F2.0°C 87% 6.0 mph ENE9.7 kmh ENE 14.0 mph22.5 kmh 29.81 in1009.5 mb 0.00 in0.0 mm 0.00 in0.0 mm 0.00 in0.0 mm
06:45 AM 39.2°F4.0°C 35.6°F2.0°C 87% 6.0 mph ENE9.7 kmh ENE 14.0 mph22.5 kmh 29.81 in1009.5 mb 0.00 in0.0 mm 0.00 in0.0 mm 0.00 in0.0 mm
06:48 AM 39.2°F4.0°C 35.6°F2.0°C 87% 6.0 mph ENE9.7 kmh ENE 12.0 mph19.3 kmh 29.81 in1009.5 mb 0.00 in0.0 mm 0.00 in0.0 mm 0.00 in0.0 mm
06:51 AM 39.2°F4.0°C 35.6°F2.0°C 87% 6.0 mph ENE9.7 kmh ENE 12.0 mph19.3 kmh 29.81 in1009.5 mb 0.00 in0.0 mm 0.00 in0.0 mm 0.00 in0.0 mm
06:54 AM 39.4°F4.1°C 35.8°F2.1°C 87% 5.0 mph ENE8.0 kmh ENE 12.0 mph19.3 kmh 29.81 in1009.5 mb 0.00 in0.0 mm 0.00 in0.0 mm 0.00 in0.0 mm
06:57 AM 39.4°F4.1°C 35.8°F2.1°C 87% 5.0 mph ENE8.0 kmh ENE 12.0 mph19.3 kmh 29.81 in1009.5 mb 0.00 in0.0 mm 0.00 in0.0 mm 0.00 in0.0 mm
07:00 AM 39.4°F4.1°C 35.8°F2.1°C 87% 5.0 mph ENE8.0 kmh ENE 12.0 mph19.3 kmh 29.81 in1009.5 mb 0.00 in0.0 mm 0.00 in0.0 mm 0.00 in0.0 mm
07:03 AM 39.4°F4.1°C 35.8°F2.1°C 87% 5.0 mph ENE8.0 kmh ENE 12.0 mph19.3 kmh 29.81 in1009.5 mb 0.00 in0.0 mm 0.00 in0.0 mm 0.00 in0.0 mm
07:06 AM 39.4°F4.1°C 35.8°F2.1°C 87% 6.0 mph ENE9.7 kmh ENE 12.0 mph19.3 kmh 29.81 in1009.5 mb 0.00 in0.0 mm 0.00 in0.0 mm 0.00 in0.0 mm
07:09 AM 39.4°F4.1°C 35.8°F2.1°C 87% 6.0 mph ENE9.7 kmh ENE 12.0 mph19.3 kmh 29.81 in1009.5 mb 0.00 in0.0 mm 0.00 in0.0 mm 0.00 in0.0 mm
07:12 AM 39.4°F4.1°C 36.1°F2.3°C 88% 6.0 mph ENE9.7 kmh ENE 13.0 mph20.9 kmh 29.81 in1009.5 mb 0.00 in0.0 mm 0.00 in0.0 mm 0.00 in0.0 mm
07:15 AM 39.6°F4.2°C 36.3°F2.4°C 88% 7.0 mph ENE11.3 kmh ENE 14.0 mph22.5 kmh 29.81 in1009.5 mb 0.00 in0.0 mm 0.00 in0.0 mm 0.00 in0.0 mm
07:18 AM 39.6°F4.2°C 36.3°F2.4°C 88% 7.0 mph ENE11.3 kmh ENE 14.0 mph22.5 kmh 29.81 in1009.5 mb 0.00 in0.0 mm 0.00 in0.0 mm 0.00 in0.0 mm
07:21 AM 39.7°F4.3°C 36.5°F2.5°C 88% 6.0 mph ENE9.7 kmh ENE 14.0 mph22.5 kmh 29.81 in1009.5 mb 0.00 in0.0 mm 0.00 in0.0 mm 0.00 in0.0 mm
07:24 AM 39.7°F4.3°C 36.5°F2.5°C 88% 6.0 mph E9.7 kmh E 12.0 mph19.3 kmh 29.81 in1009.5 mb 0.00 in0.0 mm 0.00 in0.0 mm 0.00 in0.0 mm
07:27 AM 39.9°F4.4°C 36.9°F2.7°C 89% 6.0 mph E9.7 kmh E 13.0 mph20.9 kmh 29.81 in1009.5 mb 0.00 in0.0 mm 0.00 in0.0 mm 0.00 in0.0 mm
07:30 AM 39.9°F4.4°C 37.0°F2.8°C 89% 7.0 mph E11.3 kmh E 14.0 mph22.5 kmh 29.81 in1009.5 mb 0.00 in0.0 mm 0.00 in0.0 mm 0.00 in0.0 mm
07:33 AM 40.1°F4.5°C 37.0°F2.8°C 89% 6.0 mph E9.7 kmh E 14.0 mph22.5 kmh 29.81 in1009.5 mb 0.00 in0.0 mm 0.00 in0.0 mm 0.00 in0.0 mm
07:36 AM 40.3°F4.6°C 37.2°F2.9°C 89% 6.0 mph E9.7 kmh E 14.0 mph22.5 kmh 29.81 in1009.5 mb 0.00 in0.0 mm 0.00 in0.0 mm 0.00 in0.0 mm
07:39 AM 40.3°F4.6°C 37.4°F3.0°C 89% 6.0 mph ENE9.7 kmh ENE 14.0 mph22.5 kmh 29.81 in1009.5 mb 0.00 in0.0 mm 0.00 in0.0 mm 0.00 in0.0 mm
07:42 AM 40.5°F4.7°C 37.4°F3.0°C 89% 6.0 mph ENE9.7 kmh ENE 13.0 mph20.9 kmh 29.81 in1009.5 mb 0.00 in0.0 mm 0.00 in0.0 mm 0.00 in0.0 mm
07:45 AM 40.5°F4.7°C 37.4°F3.0°C 89% 7.0 mph ENE11.3 kmh ENE 13.0 mph20.9 kmh 29.81 in1009.5 mb 0.00 in0.0 mm 0.00 in0.0 mm 0.00 in0.0 mm
07:48 AM 40.5°F4.7°C 37.6°F3.1°C 89% 7.0 mph ENE11.3 kmh ENE 13.0 mph20.9 kmh 29.81 in1009.5 mb 0.00 in0.0 mm 0.00 in0.0 mm 0.00 in0.0 mm
07:51 AM 40.6°F4.8°C 37.9°F3.3°C 90% 8.0 mph ENE12.9 kmh ENE 15.0 mph24.1 kmh 29.81 in1009.5 mb 0.00 in0.0 mm 0.00 in0.0 mm 0.00 in0.0 mm
07:54 AM 40.6°F4.8°C 37.8°F3.2°C 89% 7.0 mph E11.3 kmh E 15.0 mph24.1 kmh 29.81 in1009.5 mb 0.00 in0.0 mm 0.00 in0.0 mm 0.00 in0.0 mm
07:57 AM 40.8°F4.9°C 38.1°F3.4°C 90% 8.0 mph E12.9 kmh E 15.0 mph24.1 kmh 29.81 in1009.5 mb 0.00 in0.0 mm 0.00 in0.0 mm 0.00 in0.0 mm
08:00 AM 40.8°F4.9°C 38.1°F3.4°C 90% 8.0 mph E12.9 kmh E 15.0 mph24.1 kmh 29.81 in1009.5 mb 0.00 in0.0 mm 0.00 in0.0 mm 0.00 in0.0 mm
08:03 AM 40.8°F4.9°C 38.1°F3.4°C 90% 7.0 mph E11.3 kmh E 13.0 mph20.9 kmh 29.81 in1009.5 mb 0.00 in0.0 mm 0.00 in0.0 mm 0.00 in0.0 mm
08:06 AM 41.0°F5.0°C 38.3°F3.5°C 90% 7.0 mph E11.3 kmh E 13.0 mph20.9 kmh 29.81 in1009.5 mb 0.00 in0.0 mm 0.00 in0.0 mm 0.00 in0.0 mm
08:09 AM 41.2°F5.1°C 38.5°F3.6°C 90% 7.0 mph E11.3 kmh E 14.0 mph22.5 kmh 29.81 in1009.5 mb 0.00 in0.0 mm 0.00 in0.0 mm 0.00 in0.0 mm
08:12 AM 41.2°F5.1°C 38.5°F3.6°C 90% 7.0 mph E11.3 kmh E 14.0 mph22.5 kmh 29.81 in1009.5 mb 0.00 in0.0 mm 0.00 in0.0 mm 0.00 in0.0 mm
08:15 AM 41.2°F5.1°C 38.5°F3.6°C 90% 7.0 mph E11.3 kmh E 14.0 mph22.5 kmh 29.81 in1009.5 mb 0.00 in0.0 mm 0.00 in0.0 mm 0.00 in0.0 mm
08:18 AM 41.2°F5.1°C 38.5°F3.6°C 90% 7.0 mph ENE11.3 kmh ENE 13.0 mph20.9 kmh 29.81 in1009.5 mb 0.00 in0.0 mm 0.00 in0.0 mm 0.00 in0.0 mm
08:21 AM 41.0°F5.0°C 38.3°F3.5°C 90% 6.0 mph ENE9.7 kmh ENE 13.0 mph20.9 kmh 29.81 in1009.5 mb 0.00 in0.0 mm 0.00 in0.0 mm 0.00 in0.0 mm
08:24 AM 41.0°F5.0°C 38.3°F3.5°C 90% 6.0 mph E9.7 kmh E 13.0 mph20.9 kmh 29.81 in1009.5 mb 0.00 in0.0 mm 0.00 in0.0 mm 0.00 in0.0 mm
08:27 AM 40.8°F4.9°C 38.1°F3.4°C 90% 5.0 mph E8.0 kmh E 13.0 mph20.9 kmh 29.81 in1009.5 mb 0.00 in0.0 mm 0.00 in0.0 mm 0.00 in0.0 mm
08:30 AM 40.8°F4.9°C 38.1°F3.4°C 90% 5.0 mph E8.0 kmh E 10.0 mph16.1 kmh 29.81 in1009.5 mb 0.00 in0.0 mm 0.00 in0.0 mm 0.00 in0.0 mm
08:33 AM 40.8°F4.9°C 38.1°F3.4°C 90% 6.0 mph E9.7 kmh E 13.0 mph20.9 kmh 29.81 in1009.5 mb 0.00 in0.0 mm 0.00 in0.0 mm 0.00 in0.0 mm
08:36 AM 40.8°F4.9°C 38.1°F3.4°C 90% 6.0 mph E9.7 kmh E 16.0 mph25.7 kmh 29.81 in1009.5 mb 0.00 in0.0 mm 0.00 in0.0 mm 0.00 in0.0 mm
08:39 AM 41.0°F5.0°C 38.3°F3.5°C 90% 7.0 mph E11.3 kmh E 16.0 mph25.7 kmh 29.80 in1009.1 mb 0.00 in0.0 mm 0.00 in0.0 mm 0.00 in0.0 mm
08:42 AM 41.0°F5.0°C 38.3°F3.5°C 90% 6.0 mph E9.7 kmh E 16.0 mph25.7 kmh 29.80 in1009.1 mb 0.00 in0.0 mm 0.00 in0.0 mm 0.00 in0.0 mm
08:45 AM 41.2°F5.1°C 38.5°F3.6°C 90% 7.0 mph E11.3 kmh E 14.0 mph22.5 kmh 29.80 in1009.1 mb 0.00 in0.0 mm 0.00 in0.0 mm 0.00 in0.0 mm
08:48 AM 41.4°F5.2°C 38.7°F3.7°C 90% 8.0 mph E12.9 kmh E 18.0 mph29.0 kmh 29.80 in1009.1 mb 0.00 in0.0 mm 0.00 in0.0 mm 0.00 in0.0 mm
08:51 AM 41.4°F5.2°C 38.7°F3.7°C 90% 10.0 mph E16.1 kmh E 18.0 mph29.0 kmh 29.80 in1009.1 mb 0.00 in0.0 mm 0.00 in0.0 mm 0.00 in0.0 mm
08:54 AM 41.5°F5.3°C 38.8°F3.8°C 90% 11.0 mph E17.7 kmh E 19.0 mph30.6 kmh 29.80 in1009.1 mb 0.00 in0.0 mm 0.00 in0.0 mm 0.00 in0.0 mm
08:57 AM 41.7°F5.4°C 39.0°F3.9°C 90% 11.0 mph E17.7 kmh E 19.0 mph30.6 kmh 29.80 in1009.1 mb 0.00 in0.0 mm 0.00 in0.0 mm 0.00 in0.0 mm
09:00 AM 41.7°F5.4°C 39.0°F3.9°C 90% 10.0 mph E16.1 kmh E 19.0 mph30.6 kmh 29.80 in1009.1 mb 0.00 in0.0 mm 0.00 in0.0 mm 0.00 in0.0 mm
09:03 AM 41.9°F5.5°C 38.8°F3.8°C 89% 10.0 mph E16.1 kmh E 19.0 mph30.6 kmh 29.80 in1009.1 mb 0.00 in0.0 mm 0.00 in0.0 mm 0.00 in0.0 mm
09:06 AM 42.1°F5.6°C 39.2°F4.0°C 90% 9.0 mph E14.5 kmh E 16.0 mph25.7 kmh 29.80 in1009.1 mb 0.00 in0.0 mm 0.00 in0.0 mm 0.00 in0.0 mm
09:09 AM 42.1°F5.6°C 39.0°F3.9°C 89% 10.0 mph E16.1 kmh E 17.0 mph27.4 kmh 29.80 in1009.1 mb 0.00 in0.0 mm 0.00 in0.0 mm 0.00 in0.0 mm
09:12 AM 42.1°F5.6°C 39.0°F3.9°C 89% 10.0 mph E16.1 kmh E 17.0 mph27.4 kmh 29.80 in1009.1 mb 0.00 in0.0 mm 0.00 in0.0 mm 0.00 in0.0 mm
09:15 AM 42.1°F5.6°C 39.0°F3.9°C 89% 9.0 mph E14.5 kmh E 17.0 mph27.4 kmh 29.80 in1009.1 mb 0.00 in0.0 mm 0.00 in0.0 mm 0.00 in0.0 mm
09:18 AM 42.1°F5.6°C 39.0°F3.9°C 89% 10.0 mph E16.1 kmh E 19.0 mph30.6 kmh 29.80 in1009.1 mb 0.00 in0.0 mm 0.00 in0.0 mm 0.00 in0.0 mm
09:21 AM 42.1°F5.6°C 39.0°F3.9°C 89% 9.0 mph E14.5 kmh E 19.0 mph30.6 kmh 29.80 in1009.1 mb 0.00 in0.0 mm 0.00 in0.0 mm 0.00 in0.0 mm
09:24 AM 42.1°F5.6°C 39.0°F3.9°C 89% 9.0 mph E14.5 kmh E 19.0 mph30.6 kmh 29.80 in1009.1 mb 0.00 in0.0 mm 0.00 in0.0 mm 0.00 in0.0 mm
09:27 AM 42.1°F5.6°C 39.0°F3.9°C 89% 9.0 mph E14.5 kmh E 19.0 mph30.6 kmh 29.80 in1009.1 mb 0.00 in0.0 mm 0.00 in0.0 mm 0.00 in0.0 mm
09:30 AM 42.1°F5.6°C 39.0°F3.9°C 89% 9.0 mph E14.5 kmh E 19.0 mph30.6 kmh 29.80 in1009.1 mb 0.00 in0.0 mm 0.00 in0.0 mm 0.00 in0.0 mm
09:33 AM 42.1°F5.6°C 39.0°F3.9°C 89% 9.0 mph E14.5 kmh E 19.0 mph30.6 kmh 29.80 in1009.1 mb 0.00 in0.0 mm 0.00 in0.0 mm 0.00 in0.0 mm
09:36 AM 42.1°F5.6°C 39.0°F3.9°C 89% 9.0 mph E14.5 kmh E 18.0 mph29.0 kmh 29.79 in1008.8 mb 0.00 in0.0 mm 0.00 in0.0 mm 0.00 in0.0 mm
09:39 AM 42.3°F5.7°C 39.6°F4.2°C 90% 9.0 mph E14.5 kmh E 16.0 mph25.7 kmh 29.79 in1008.8 mb 0.00 in0.0 mm 0.00 in0.0 mm 0.00 in0.0 mm
09:42 AM 42.3°F5.7°C 39.2°F4.0°C 89% 9.0 mph E14.5 kmh E 16.0 mph25.7 kmh 29.79 in1008.8 mb 0.00 in0.0 mm 0.00 in0.0 mm 0.00 in0.0 mm
09:45 AM 42.3°F5.7°C 39.6°F4.2°C 90% 9.0 mph E14.5 kmh E 16.0 mph25.7 kmh 29.79 in1008.8 mb 0.00 in0.0 mm 0.00 in0.0 mm 0.00 in0.0 mm
09:48 AM 42.3°F5.7°C 39.2°F4.0°C 89% 8.0 mph E12.9 kmh E 15.0 mph24.1 kmh 29.79 in1008.8 mb 0.00 in0.0 mm 0.00 in0.0 mm 0.00 in0.0 mm
09:51 AM 42.3°F5.7°C 39.2°F4.0°C 89% 9.0 mph E14.5 kmh E 17.0 mph27.4 kmh 29.79 in1008.8 mb 0.00 in0.0 mm 0.00 in0.0 mm 0.00 in0.0 mm
09:54 AM 42.4°F5.8°C 39.4°F4.1°C 89% 9.0 mph E14.5 kmh E 17.0 mph27.4 kmh 29.79 in1008.8 mb 0.00 in0.0 mm 0.00 in0.0 mm 0.00 in0.0 mm
09:57 AM 42.4°F5.8°C 39.7°F4.3°C 90% 10.0 mph E16.1 kmh E 21.0 mph33.8 kmh 29.79 in1008.8 mb 0.00 in0.0 mm 0.00 in0.0 mm 0.00 in0.0 mm
10:00 AM 42.6°F5.9°C 39.9°F4.4°C 90% 10.0 mph E16.1 kmh E 21.0 mph33.8 kmh 29.79 in1008.8 mb 0.00 in0.0 mm 0.00 in0.0 mm 0.00 in0.0 mm
10:03 AM 42.6°F5.9°C 39.7°F4.3°C 89% 11.0 mph E17.7 kmh E 21.0 mph33.8 kmh 29.79 in1008.8 mb 0.00 in0.0 mm 0.00 in0.0 mm 0.00 in0.0 mm
10:06 AM 42.8°F6.0°C 39.7°F4.3°C 89% 11.0 mph E17.7 kmh E 21.0 mph33.8 kmh 29.79 in1008.8 mb 0.00 in0.0 mm 0.00 in0.0 mm 0.00 in0.0 mm
10:09 AM 43.0°F6.1°C 39.9°F4.4°C 89% 10.0 mph E16.1 kmh E 18.0 mph29.0 kmh 29.79 in1008.8 mb 0.00 in0.0 mm 0.00 in0.0 mm 0.00 in0.0 mm
10:12 AM 43.2°F6.2°C 39.7°F4.3°C 88% 10.0 mph E16.1 kmh E 20.0 mph32.2 kmh 29.79 in1008.8 mb 0.00 in0.0 mm 0.00 in0.0 mm 0.00 in0.0 mm
10:15 AM 43.2°F6.2°C 39.6°F4.2°C 87% 11.0 mph E17.7 kmh E 20.0 mph32.2 kmh 29.79 in1008.8 mb 0.00 in0.0 mm 0.00 in0.0 mm 0.00 in0.0 mm
10:18 AM 43.3°F6.3°C 39.7°F4.3°C 87% 11.0 mph E17.7 kmh E 20.0 mph32.2 kmh 29.79 in1008.8 mb 0.00 in0.0 mm 0.00 in0.0 mm 0.00 in0.0 mm
10:21 AM 43.3°F6.3°C 39.7°F4.3°C 87% 11.0 mph E17.7 kmh E 20.0 mph32.2 kmh 29.79 in1008.8 mb 0.00 in0.0 mm 0.00 in0.0 mm 0.00 in0.0 mm
10:24 AM 43.5°F6.4°C 39.6°F4.2°C 86% 11.0 mph E17.7 kmh E 21.0 mph33.8 kmh 29.79 in1008.8 mb 0.00 in0.0 mm 0.00 in0.0 mm 0.00 in0.0 mm
10:27 AM 43.5°F6.4°C 39.6°F4.2°C 86% 12.0 mph E19.3 kmh E 21.0 mph33.8 kmh 29.79 in1008.8 mb 0.00 in0.0 mm 0.00 in0.0 mm 0.00 in0.0 mm
10:30 AM 43.5°F6.4°C 39.4°F4.1°C 85% 12.0 mph E19.3 kmh E 21.0 mph33.8 kmh 29.78 in1008.5 mb 0.00 in0.0 mm 0.00 in0.0 mm 0.00 in0.0 mm
10:33 AM 43.7°F6.5°C 39.7°F4.3°C 86% 12.0 mph E19.3 kmh E 21.0 mph33.8 kmh 29.78 in1008.5 mb 0.00 in0.0 mm 0.00 in0.0 mm 0.00 in0.0 mm
10:36 AM 43.7°F6.5°C 39.7°F4.3°C 86% 13.0 mph E20.9 kmh E 23.0 mph37.0 kmh 29.78 in1008.5 mb 0.00 in0.0 mm 0.00 in0.0 mm 0.00 in0.0 mm
10:39 AM 43.7°F6.5°C 39.6°F4.2°C 85% 13.0 mph E20.9 kmh E 23.0 mph37.0 kmh 29.78 in1008.5 mb 0.00 in0.0 mm 0.00 in0.0 mm 0.00 in0.0 mm
10:42 AM 43.9°F6.6°C 39.9°F4.4°C 86% 13.0 mph E20.9 kmh E 23.0 mph37.0 kmh 29.78 in1008.5 mb 0.00 in0.0 mm 0.00 in0.0 mm 0.00 in0.0 mm
10:45 AM 43.9°F6.6°C 39.9°F4.4°C 86% 12.0 mph E19.3 kmh E 18.0 mph29.0 kmh 29.78 in1008.5 mb 0.00 in0.0 mm 0.00 in0.0 mm 0.00 in0.0 mm
10:48 AM 43.9°F6.6°C 39.9°F4.4°C 86% 11.0 mph E17.7 kmh E 18.0 mph29.0 kmh 29.78 in1008.5 mb 0.00 in0.0 mm 0.00 in0.0 mm 0.00 in0.0 mm
10:51 AM 43.9°F6.6°C 39.9°F4.4°C 86% 11.0 mph E17.7 kmh E 18.0 mph29.0 kmh 29.78 in1008.5 mb 0.00 in0.0 mm 0.00 in0.0 mm 0.00 in0.0 mm
10:54 AM 43.9°F6.6°C 39.9°F4.4°C 86% 11.0 mph E17.7 kmh E 20.0 mph32.2 kmh 29.78 in1008.5 mb 0.00 in0.0 mm 0.00 in0.0 mm 0.00 in0.0 mm
10:57 AM 43.9°F6.6°C 39.9°F4.4°C 86% 12.0 mph E19.3 kmh E 20.0 mph32.2 kmh 29.77 in1008.1 mb 0.00 in0.0 mm 0.00 in0.0 mm 0.00 in0.0 mm
11:00 AM 43.9°F6.6°C 39.9°F4.4°C 86% 13.0 mph E20.9 kmh E 21.0 mph33.8 kmh 29.77 in1008.1 mb 0.00 in0.0 mm 0.00 in0.0 mm 0.00 in0.0 mm
11:03 AM 43.9°F6.6°C 39.9°F4.4°C 86% 13.0 mph E20.9 kmh E 21.0 mph33.8 kmh 29.77 in1008.1 mb 0.00 in0.0 mm 0.00 in0.0 mm 0.00 in0.0 mm
11:06 AM 43.7°F6.5°C 39.7°F4.3°C 86% 13.0 mph E20.9 kmh E 21.0 mph33.8 kmh 29.77 in1008.1 mb 0.00 in0.0 mm 0.00 in0.0 mm 0.00 in0.0 mm
11:09 AM 43.7°F6.5°C 39.7°F4.3°C 86% 13.0 mph E20.9 kmh E 21.0 mph33.8 kmh 29.77 in1008.1 mb 0.00 in0.0 mm 0.00 in0.0 mm 0.00 in0.0 mm
11:12 AM 43.7°F6.5°C 39.7°F4.3°C 86% 12.0 mph E19.3 kmh E 20.0 mph32.2 kmh 29.77 in1008.1 mb 0.00 in0.0 mm 0.00 in0.0 mm 0.00 in0.0 mm
11:15 AM 43.7°F6.5°C 40.1°F4.5°C 87% 12.0 mph E19.3 kmh E 20.0 mph32.2 kmh 29.77 in1008.1 mb 0.00 in0.0 mm 0.00 in0.0 mm 0.00 in0.0 mm
11:18 AM 43.5°F6.4°C 39.9°F4.4°C 87% 11.0 mph E17.7 kmh E 21.0 mph33.8 kmh 29.77 in1008.1 mb 0.00 in0.0 mm 0.00 in0.0 mm 0.00 in0.0 mm
11:21 AM 43.3°F6.3°C 40.1°F4.5°C 88% 12.0 mph E19.3 kmh E 21.0 mph33.8 kmh 29.76 in1007.8 mb 0.00 in0.0 mm 0.00 in0.0 mm 0.00 in0.0 mm
11:24 AM 43.2°F6.2°C 39.6°F4.2°C 87% 12.0 mph E19.3 kmh E 21.0 mph33.8 kmh 29.76 in1007.8 mb 0.00 in0.0 mm 0.00 in0.0 mm 0.00 in0.0 mm
11:27 AM 42.8°F6.0°C 39.2°F4.0°C 87% 13.0 mph E20.9 kmh E 22.0 mph35.4 kmh 29.76 in1007.8 mb 0.01 in0.3 mm 0.20 in5.1 mm 0.01 in0.3 mm
11:30 AM 42.4°F5.8°C 38.8°F3.8°C 87% 12.0 mph E19.3 kmh E 22.0 mph35.4 kmh 29.76 in1007.8 mb 0.01 in0.3 mm 0.00 in0.0 mm 0.01 in0.3 mm
11:33 AM 42.3°F5.7°C 38.7°F3.7°C 87% 13.0 mph E20.9 kmh E 29.0 mph46.7 kmh 29.76 in1007.8 mb 0.01 in0.3 mm 0.00 in0.0 mm 0.01 in0.3 mm
11:36 AM 41.9°F5.5°C 38.3°F3.5°C 87% 13.0 mph E20.9 kmh E 29.0 mph46.7 kmh 29.76 in1007.8 mb 0.02 in0.5 mm 0.20 in5.1 mm 0.02 in0.5 mm
11:39 AM 41.7°F5.4°C 38.5°F3.6°C 88% 13.0 mph E20.9 kmh E 29.0 mph46.7 kmh 29.76 in1007.8 mb 0.02 in0.5 mm 0.00 in0.0 mm 0.02 in0.5 mm
11:42 AM 41.9°F5.5°C 38.7°F3.7°C 88% 13.0 mph E20.9 kmh E 23.0 mph37.0 kmh 29.76 in1007.8 mb 0.02 in0.5 mm 0.00 in0.0 mm 0.02 in0.5 mm
11:45 AM 41.7°F5.4°C 38.5°F3.6°C 88% 14.0 mph E22.5 kmh E 23.0 mph37.0 kmh 29.75 in1007.5 mb 0.02 in0.5 mm 0.00 in0.0 mm 0.02 in0.5 mm
11:48 AM 41.7°F5.4°C 38.5°F3.6°C 88% 13.0 mph E20.9 kmh E 23.0 mph37.0 kmh 29.75 in1007.5 mb 0.03 in0.8 mm 0.20 in5.1 mm 0.03 in0.8 mm
11:51 AM 41.5°F5.3°C 38.3°F3.5°C 88% 13.0 mph ESE20.9 kmh ESE 23.0 mph37.0 kmh 29.75 in1007.5 mb 0.03 in0.8 mm 0.00 in0.0 mm 0.03 in0.8 mm
11:54 AM 41.5°F5.3°C 38.3°F3.5°C 88% 12.0 mph ESE19.3 kmh ESE 23.0 mph37.0 kmh 29.75 in1007.5 mb 0.03 in0.8 mm 0.00 in0.0 mm 0.03 in0.8 mm
11:57 AM 41.4°F5.2°C 37.8°F3.2°C 87% 13.0 mph ESE20.9 kmh ESE 23.0 mph37.0 kmh 29.75 in1007.5 mb 0.04 in1.0 mm 0.20 in5.1 mm 0.04 in1.0 mm
12:00 PM 41.5°F5.3°C 37.9°F3.3°C 87% 14.0 mph ESE22.5 kmh ESE 23.0 mph37.0 kmh 29.75 in1007.5 mb 0.04 in1.0 mm 0.00 in0.0 mm 0.04 in1.0 mm
12:03 PM 41.4°F5.2°C 37.8°F3.2°C 87% 14.0 mph ESE22.5 kmh ESE 24.0 mph38.6 kmh 29.75 in1007.5 mb 0.04 in1.0 mm 0.00 in0.0 mm 0.04 in1.0 mm
12:06 PM 41.4°F5.2°C 37.8°F3.2°C 87% 14.0 mph ESE22.5 kmh ESE 24.0 mph38.6 kmh 29.75 in1007.5 mb 0.04 in1.0 mm 0.00 in0.0 mm 0.04 in1.0 mm
12:09 PM 41.4°F5.2°C 37.8°F3.2°C 87% 14.0 mph ESE22.5 kmh ESE 24.0 mph38.6 kmh 29.75 in1007.5 mb 0.04 in1.0 mm 0.00 in0.0 mm 0.04 in1.0 mm
12:12 PM 41.5°F5.3°C 37.9°F3.3°C 87% 13.0 mph ESE20.9 kmh ESE 23.0 mph37.0 kmh 29.75 in1007.5 mb 0.05 in1.3 mm 0.20 in5.1 mm 0.05 in1.3 mm
12:15 PM 41.5°F5.3°C 37.9°F3.3°C 87% 13.0 mph ESE20.9 kmh ESE 23.0 mph37.0 kmh 29.75 in1007.5 mb 0.05 in1.3 mm 0.00 in0.0 mm 0.05 in1.3 mm
12:18 PM 41.5°F5.3°C 38.3°F3.5°C 88% 12.0 mph ESE19.3 kmh ESE 21.0 mph33.8 kmh 29.75 in1007.5 mb 0.05 in1.3 mm 0.00 in0.0 mm 0.05 in1.3 mm
12:21 PM 41.7°F5.4°C 38.5°F3.6°C 88% 12.0 mph ESE19.3 kmh ESE 21.0 mph33.8 kmh 29.75 in1007.5 mb 0.05 in1.3 mm 0.00 in0.0 mm 0.05 in1.3 mm
12:24 PM 41.5°F5.3°C 38.3°F3.5°C 88% 13.0 mph ESE20.9 kmh ESE 20.0 mph32.2 kmh 29.74 in1007.1 mb 0.05 in1.3 mm 0.00 in0.0 mm 0.05 in1.3 mm
12:27 PM 41.5°F5.3°C 39.4°F4.1°C 92% 13.0 mph E20.9 kmh E 20.0 mph32.2 kmh 29.74 in1007.1 mb 0.04 in1.0 mm 0.00 in0.0 mm 0.05 in1.3 mm
12:30 PM 41.7°F5.4°C 38.5°F3.6°C 88% 13.0 mph E20.9 kmh E 23.0 mph37.0 kmh 29.74 in1007.1 mb 0.04 in1.0 mm 0.00 in0.0 mm 0.05 in1.3 mm
12:33 PM 41.5°F5.3°C 39.4°F4.1°C 92% 14.0 mph E22.5 kmh E 23.0 mph37.0 kmh 29.74 in1007.1 mb 0.04 in1.0 mm 0.00 in0.0 mm 0.05 in1.3 mm
12:36 PM 41.5°F5.3°C 38.3°F3.5°C 88% 13.0 mph E20.9 kmh E 23.0 mph37.0 kmh 29.74 in1007.1 mb 0.03 in0.8 mm 0.00 in0.0 mm 0.05 in1.3 mm
12:39 PM 41.5°F5.3°C 37.9°F3.3°C 87% 12.0 mph E19.3 kmh E 23.0 mph37.0 kmh 29.74 in1007.1 mb 0.03 in0.8 mm 0.00 in0.0 mm 0.05 in1.3 mm
12:42 PM 41.5°F5.3°C 37.9°F3.3°C 87% 12.0 mph E19.3 kmh E 22.0 mph35.4 kmh 29.74 in1007.1 mb 0.02 in0.5 mm 0.00 in0.0 mm 0.05 in1.3 mm
12:45 PM 41.5°F5.3°C 38.3°F3.5°C 88% 14.0 mph E22.5 kmh E 24.0 mph38.6 kmh 29.74 in1007.1 mb 0.02 in0.5 mm 0.00 in0.0 mm 0.05 in1.3 mm
12:48 PM 41.7°F5.4°C 38.5°F3.6°C 88% 14.0 mph E22.5 kmh E 24.0 mph38.6 kmh 29.74 in1007.1 mb 0.02 in0.5 mm 0.00 in0.0 mm 0.05 in1.3 mm
12:51 PM 41.5°F5.3°C 38.3°F3.5°C 88% 14.0 mph E22.5 kmh E 24.0 mph38.6 kmh 29.73 in1006.8 mb 0.02 in0.5 mm 0.00 in0.0 mm 0.05 in1.3 mm
12:54 PM 41.5°F5.3°C 38.3°F3.5°C 88% 14.0 mph E22.5 kmh E 24.0 mph38.6 kmh 29.73 in1006.8 mb 0.02 in0.5 mm 0.00 in0.0 mm 0.06 in1.5 mm
12:57 PM 41.7°F5.4°C 38.5°F3.6°C 88% 14.0 mph E22.5 kmh E 24.0 mph38.6 kmh 29.73 in1006.8 mb 0.02 in0.5 mm 0.00 in0.0 mm 0.06 in1.5 mm
01:00 PM 41.7°F5.4°C 38.5°F3.6°C 88% 13.0 mph E20.9 kmh E 23.0 mph37.0 kmh 29.73 in1006.8 mb 0.02 in0.5 mm 0.00 in0.0 mm 0.06 in1.5 mm
01:03 PM 41.7°F5.4°C 38.5°F3.6°C 88% 12.0 mph E19.3 kmh E 21.0 mph33.8 kmh 29.73 in1006.8 mb 0.02 in0.5 mm 0.00 in0.0 mm 0.06 in1.5 mm
01:06 PM 41.5°F5.3°C 38.3°F3.5°C 88% 13.0 mph E20.9 kmh E 21.0 mph33.8 kmh 29.73 in1006.8 mb 0.02 in0.5 mm 0.00 in0.0 mm 0.06 in1.5 mm
01:09 PM 41.7°F5.4°C 38.7°F3.7°C 89% 13.0 mph E20.9 kmh E 21.0 mph33.8 kmh 29.73 in1006.8 mb 0.02 in0.5 mm 0.00 in0.0 mm 0.06 in1.5 mm
01:12 PM 41.7°F5.4°C 38.5°F3.6°C 88% 14.0 mph E22.5 kmh E 21.0 mph33.8 kmh 29.73 in1006.8 mb 0.01 in0.3 mm 0.00 in0.0 mm 0.06 in1.5 mm
01:15 PM 41.7°F5.4°C 38.5°F3.6°C 88% 14.0 mph E22.5 kmh E 23.0 mph37.0 kmh 29.72 in1006.4 mb 0.01 in0.3 mm 0.00 in0.0 mm 0.06 in1.5 mm
01:18 PM 41.7°F5.4°C 38.5°F3.6°C 88% 14.0 mph E22.5 kmh E 26.0 mph41.8 kmh 29.72 in1006.4 mb 0.02 in0.5 mm 0.20 in5.1 mm 0.06 in1.5 mm
01:21 PM 41.5°F5.3°C 38.3°F3.5°C 88% 14.0 mph E22.5 kmh E 26.0 mph41.8 kmh 29.72 in1006.4 mb 0.02 in0.5 mm 0.00 in0.0 mm 0.06 in1.5 mm
01:24 PM 41.5°F5.3°C 38.3°F3.5°C 88% 15.0 mph ESE24.1 kmh ESE 26.0 mph41.8 kmh 29.72 in1006.4 mb 0.02 in0.5 mm 0.00 in0.0 mm 0.06 in1.5 mm
01:27 PM 41.5°F5.3°C 38.5°F3.6°C 89% 15.0 mph ESE24.1 kmh ESE 23.0 mph37.0 kmh 29.72 in1006.4 mb 0.02 in0.5 mm 0.00 in0.0 mm 0.06 in1.5 mm
01:30 PM 41.4°F5.2°C 38.3°F3.5°C 89% 15.0 mph SE24.1 kmh SE 26.0 mph41.8 kmh 29.72 in1006.4 mb 0.02 in0.5 mm 0.00 in0.0 mm 0.06 in1.5 mm
01:33 PM 41.2°F5.1°C 38.1°F3.4°C 89% 15.0 mph SE24.1 kmh SE 26.0 mph41.8 kmh 29.72 in1006.4 mb 0.02 in0.5 mm 0.00 in0.0 mm 0.07 in1.8 mm
01:36 PM 41.2°F5.1°C 38.1°F3.4°C 89% 15.0 mph ESE24.1 kmh ESE 26.0 mph41.8 kmh 29.72 in1006.4 mb 0.02 in0.5 mm 0.00 in0.0 mm 0.07 in1.8 mm
01:39 PM 41.0°F5.0°C 38.3°F3.5°C 90% 15.0 mph SE24.1 kmh SE 26.0 mph41.8 kmh 29.71 in1006.1 mb 0.03 in0.8 mm 0.20 in5.1 mm 0.08 in2.0 mm
01:42 PM 41.0°F5.0°C 38.3°F3.5°C 90% 15.0 mph SE24.1 kmh SE 25.0 mph40.2 kmh 29.72 in1006.4 mb 0.03 in0.8 mm 0.00 in0.0 mm 0.08 in2.0 mm
01:45 PM 41.0°F5.0°C 38.7°F3.7°C 91% 14.0 mph SE22.5 kmh SE 25.0 mph40.2 kmh 29.71 in1006.1 mb 0.03 in0.8 mm 0.00 in0.0 mm 0.08 in2.0 mm
01:48 PM 41.0°F5.0°C 38.7°F3.7°C 91% 14.0 mph SE22.5 kmh SE 25.0 mph40.2 kmh 29.71 in1006.1 mb 0.03 in0.8 mm 0.00 in0.0 mm 0.08 in2.0 mm
01:51 PM 40.8°F4.9°C 38.5°F3.6°C 91% 13.0 mph SE20.9 kmh SE 26.0 mph41.8 kmh 29.71 in1006.1 mb 0.04 in1.0 mm 0.20 in5.1 mm 0.09 in2.3 mm
01:54 PM 40.8°F4.9°C 38.3°F3.5°C 91% 13.0 mph ESE20.9 kmh ESE 26.0 mph41.8 kmh 29.71 in1006.1 mb 0.03 in0.8 mm 0.00 in0.0 mm 0.09 in2.3 mm
01:57 PM 40.8°F4.9°C 38.3°F3.5°C 91% 14.0 mph ESE22.5 kmh ESE 26.0 mph41.8 kmh 29.71 in1006.1 mb 0.04 in1.0 mm 0.20 in5.1 mm 0.09 in2.3 mm
02:00 PM 40.6°F4.8°C 38.3°F3.5°C 91% 14.0 mph ESE22.5 kmh ESE 26.0 mph41.8 kmh 29.71 in1006.1 mb 0.04 in1.0 mm 0.00 in0.0 mm 0.09 in2.3 mm
02:03 PM 40.6°F4.8°C 38.1°F3.4°C 91% 15.0 mph ESE24.1 kmh ESE 24.0 mph38.6 kmh 29.70 in1005.8 mb 0.04 in1.0 mm 0.00 in0.0 mm 0.09 in2.3 mm
02:06 PM 40.5°F4.7°C 38.1°F3.4°C 91% 16.0 mph ESE25.7 kmh ESE 29.0 mph46.7 kmh 29.70 in1005.8 mb 0.04 in1.0 mm 0.00 in0.0 mm 0.09 in2.3 mm
02:09 PM 40.5°F4.7°C 38.1°F3.4°C 91% 16.0 mph ESE25.7 kmh ESE 29.0 mph46.7 kmh 29.70 in1005.8 mb 0.05 in1.3 mm 0.20 in5.1 mm 0.10 in2.5 mm
02:12 PM 40.5°F4.7°C 38.1°F3.4°C 91% 15.0 mph ESE24.1 kmh ESE 29.0 mph46.7 kmh 29.70 in1005.8 mb 0.06 in1.5 mm 0.20 in5.1 mm 0.11 in2.8 mm
02:15 PM 40.5°F4.7°C 38.3°F3.5°C 92% 14.0 mph ESE22.5 kmh ESE 29.0 mph46.7 kmh 29.70 in1005.8 mb 0.06 in1.5 mm 0.00 in0.0 mm 0.11 in2.8 mm
02:18 PM 40.5°F4.7°C 38.3°F3.5°C 92% 14.0 mph ESE22.5 kmh ESE 23.0 mph37.0 kmh 29.70 in1005.8 mb 0.05 in1.3 mm 0.00 in0.0 mm 0.11 in2.8 mm
02:21 PM 40.5°F4.7°C 38.3°F3.5°C 92% 15.0 mph ESE24.1 kmh ESE 23.0 mph37.0 kmh 29.70 in1005.8 mb 0.06 in1.5 mm 0.20 in5.1 mm 0.12 in3.0 mm
02:24 PM 40.3°F4.6°C 38.1°F3.4°C 92% 15.0 mph ESE24.1 kmh ESE 25.0 mph40.2 kmh 29.70 in1005.8 mb 0.06 in1.5 mm 0.00 in0.0 mm 0.12 in3.0 mm
02:27 PM 40.5°F4.7°C 38.3°F3.5°C 92% 15.0 mph SE24.1 kmh SE 25.0 mph40.2 kmh 29.70 in1005.8 mb 0.06 in1.5 mm 0.00 in0.0 mm 0.13 in3.3 mm
02:30 PM 40.3°F4.6°C 38.1°F3.4°C 92% 15.0 mph SE24.1 kmh SE 28.0 mph45.1 kmh 29.69 in1005.4 mb 0.07 in1.8 mm 0.20 in5.1 mm 0.13 in3.3 mm
02:33 PM 40.1°F4.5°C 37.9°F3.3°C 92% 15.0 mph ESE24.1 kmh ESE 28.0 mph45.1 kmh 29.70 in1005.8 mb 0.06 in1.5 mm 0.00 in0.0 mm 0.13 in3.3 mm
02:36 PM 39.9°F4.4°C 37.9°F3.3°C 92% 15.0 mph ESE24.1 kmh ESE 28.0 mph45.1 kmh 29.69 in1005.4 mb 0.07 in1.8 mm 0.20 in5.1 mm 0.14 in3.6 mm
02:39 PM 39.9°F4.4°C 37.9°F3.3°C 92% 14.0 mph ESE22.5 kmh ESE 28.0 mph45.1 kmh 29.69 in1005.4 mb 0.06 in1.5 mm 0.00 in0.0 mm 0.14 in3.6 mm
02:42 PM 40.1°F4.5°C 37.9°F3.3°C 92% 14.0 mph ESE22.5 kmh ESE 23.0 mph37.0 kmh 29.69 in1005.4 mb 0.06 in1.5 mm 0.00 in0.0 mm 0.14 in3.6 mm
02:45 PM 40.3°F4.6°C 38.3°F3.5°C 93% 13.0 mph ESE20.9 kmh ESE 23.0 mph37.0 kmh 29.69 in1005.4 mb 0.07 in1.8 mm 0.20 in5.1 mm 0.15 in3.8 mm
02:48 PM 40.1°F4.5°C 37.9°F3.3°C 92% 14.0 mph ESE22.5 kmh ESE 30.0 mph48.3 kmh 29.69 in1005.4 mb 0.08 in2.0 mm 0.20 in5.1 mm 0.16 in4.1 mm
02:51 PM 39.9°F4.4°C 37.9°F3.3°C 92% 14.0 mph ESE22.5 kmh ESE 30.0 mph48.3 kmh 29.69 in1005.4 mb 0.07 in1.8 mm 0.00 in0.0 mm 0.16 in4.1 mm
02:54 PM 39.9°F4.4°C 37.8°F3.2°C 92% 14.0 mph ESE22.5 kmh ESE 30.0 mph48.3 kmh 29.68 in1005.1 mb 0.07 in1.8 mm 0.00 in0.0 mm 0.16 in4.1 mm
02:57 PM 39.9°F4.4°C 37.8°F3.2°C 92% 15.0 mph ESE24.1 kmh ESE 30.0 mph48.3 kmh 29.68 in1005.1 mb 0.06 in1.5 mm 0.00 in0.0 mm 0.16 in4.1 mm
03:00 PM 39.9°F4.4°C 37.8°F3.2°C 92% 15.0 mph ESE24.1 kmh ESE 26.0 mph41.8 kmh 29.68 in1005.1 mb 0.07 in1.8 mm 0.01 in0.3 mm 0.17 in4.3 mm
03:03 PM 39.9°F4.4°C 38.1°F3.4°C 93% 15.0 mph ESE24.1 kmh ESE 26.0 mph41.8 kmh 29.68 in1005.1 mb 0.08 in2.0 mm 0.20 in5.1 mm 0.17 in4.3 mm
03:06 PM 39.9°F4.4°C 38.1°F3.4°C 93% 15.0 mph ESE24.1 kmh ESE 24.0 mph38.6 kmh 29.68 in1005.1 mb 0.08 in2.0 mm 0.00 in0.0 mm 0.17 in4.3 mm
03:09 PM 39.9°F4.4°C 37.8°F3.2°C 92% 15.0 mph ESE24.1 kmh ESE 29.0 mph46.7 kmh 29.67 in1004.7 mb 0.07 in1.8 mm 0.00 in0.0 mm 0.17 in4.3 mm
03:12 PM 39.7°F4.3°C 37.9°F3.3°C 93% 15.0 mph ESE24.1 kmh ESE 29.0 mph46.7 kmh 29.67 in1004.7 mb 0.06 in1.5 mm 0.00 in0.0 mm 0.17 in4.3 mm
03:15 PM 39.7°F4.3°C 37.9°F3.3°C 93% 15.0 mph ESE24.1 kmh ESE 29.0 mph46.7 kmh 29.67 in1004.7 mb 0.07 in1.8 mm 0.20 in5.1 mm 0.18 in4.6 mm
03:18 PM 39.7°F4.3°C 37.8°F3.2°C 93% 15.0 mph ESE24.1 kmh ESE 25.0 mph40.2 kmh 29.67 in1004.7 mb 0.07 in1.8 mm 0.00 in0.0 mm 0.18 in4.6 mm
03:21 PM 39.6°F4.2°C 37.8°F3.2°C 93% 15.0 mph ESE24.1 kmh ESE 29.0 mph46.7 kmh 29.67 in1004.7 mb 0.07 in1.8 mm 0.00 in0.0 mm 0.19 in4.8 mm
03:24 PM 39.6°F4.2°C 37.8°F3.2°C 93% 16.0 mph ESE25.7 kmh ESE 29.0 mph46.7 kmh 29.66 in1004.4 mb 0.06 in1.5 mm 0.00 in0.0 mm 0.19 in4.8 mm
03:27 PM 39.6°F4.2°C 37.8°F3.2°C 93% 16.0 mph ESE25.7 kmh ESE 29.0 mph46.7 kmh 29.66 in1004.4 mb 0.06 in1.5 mm 0.00 in0.0 mm 0.19 in4.8 mm
03:30 PM 39.6°F4.2°C 37.8°F3.2°C 93% 16.0 mph ESE25.7 kmh ESE 29.0 mph46.7 kmh 29.66 in1004.4 mb 0.06 in1.5 mm 0.00 in0.0 mm 0.20 in5.1 mm
03:33 PM 39.6°F4.2°C 37.8°F3.2°C 93% 16.0 mph E25.7 kmh E 29.0 mph46.7 kmh 29.66 in1004.4 mb 0.07 in1.8 mm 0.20 in5.1 mm 0.20 in5.1 mm
03:36 PM 39.6°F4.2°C 37.8°F3.2°C 93% 16.0 mph E25.7 kmh E 25.0 mph40.2 kmh 29.66 in1004.4 mb 0.06 in1.5 mm 0.00 in0.0 mm 0.20 in5.1 mm
03:39 PM 39.6°F4.2°C 37.6°F3.1°C 93% 17.0 mph E27.4 kmh E 28.0 mph45.1 kmh 29.66 in1004.4 mb 0.06 in1.5 mm 0.00 in0.0 mm 0.20 in5.1 mm
03:42 PM 39.4°F4.1°C 37.6°F3.1°C 93% 17.0 mph E27.4 kmh E 28.0 mph45.1 kmh 29.66 in1004.4 mb 0.07 in1.8 mm 0.20 in5.1 mm 0.21 in5.3 mm
03:45 PM 39.4°F4.1°C 37.6°F3.1°C 93% 18.0 mph E29.0 kmh E 28.0 mph45.1 kmh 29.65 in1004.1 mb 0.07 in1.8 mm 0.00 in0.0 mm 0.22 in5.6 mm
03:48 PM 39.4°F4.1°C 37.6°F3.1°C 93% 17.0 mph E27.4 kmh E 28.0 mph45.1 kmh 29.65 in1004.1 mb 0.06 in1.5 mm 0.00 in0.0 mm 0.22 in5.6 mm
03:51 PM 39.4°F4.1°C 37.6°F3.1°C 93% 18.0 mph E29.0 kmh E 26.0 mph41.8 kmh 29.65 in1004.1 mb 0.07 in1.8 mm 0.20 in5.1 mm 0.23 in5.8 mm
03:54 PM 39.6°F4.2°C 37.6°F3.1°C 93% 17.0 mph E27.4 kmh E 26.0 mph41.8 kmh 29.65 in1004.1 mb 0.08 in2.0 mm 0.20 in5.1 mm 0.24 in6.1 mm
03:57 PM 39.6°F4.2°C 37.8°F3.2°C 93% 15.0 mph E24.1 kmh E 26.0 mph41.8 kmh 29.65 in1004.1 mb 0.08 in2.0 mm 0.00 in0.0 mm 0.24 in6.1 mm
04:00 PM 39.6°F4.2°C 37.8°F3.2°C 93% 15.0 mph E24.1 kmh E 27.0 mph43.5 kmh 29.64 in1003.7 mb 0.07 in1.8 mm 0.00 in0.0 mm 0.24 in6.1 mm
04:03 PM 39.6°F4.2°C 37.6°F3.1°C 93% 14.0 mph E22.5 kmh E 27.0 mph43.5 kmh 29.64 in1003.7 mb 0.07 in1.8 mm 0.00 in0.0 mm 0.24 in6.1 mm
04:06 PM 39.4°F4.1°C 37.6°F3.1°C 93% 16.0 mph E25.7 kmh E 30.0 mph48.3 kmh 29.64 in1003.7 mb 0.08 in2.0 mm 0.20 in5.1 mm 0.25 in6.4 mm
04:09 PM 39.2°F4.0°C 37.4°F3.0°C 93% 17.0 mph E27.4 kmh E 34.0 mph54.7 kmh 29.64 in1003.7 mb 0.08 in2.0 mm 0.00 in0.0 mm 0.25 in6.4 mm
04:12 PM 39.0°F3.9°C 37.2°F2.9°C 93% 18.0 mph E29.0 kmh E 34.0 mph54.7 kmh 29.64 in1003.7 mb 0.09 in2.3 mm 0.20 in5.1 mm 0.26 in6.6 mm
04:15 PM 39.2°F4.0°C 37.4°F3.0°C 93% 18.0 mph E29.0 kmh E 34.0 mph54.7 kmh 29.64 in1003.7 mb 0.09 in2.3 mm 0.00 in0.0 mm 0.27 in6.9 mm
04:18 PM 39.2°F4.0°C 37.4°F3.0°C 93% 17.0 mph E27.4 kmh E 28.0 mph45.1 kmh 29.64 in1003.7 mb 0.09 in2.3 mm 0.00 in0.0 mm 0.27 in6.9 mm
04:21 PM 39.0°F3.9°C 37.2°F2.9°C 93% 18.0 mph E29.0 kmh E 33.0 mph53.1 kmh 29.63 in1003.4 mb 0.09 in2.3 mm 0.00 in0.0 mm 0.28 in7.1 mm
04:24 PM 39.0°F3.9°C 37.2°F2.9°C 93% 19.0 mph E30.6 kmh E 33.0 mph53.1 kmh 29.63 in1003.4 mb 0.09 in2.3 mm 0.00 in0.0 mm 0.28 in7.1 mm
04:27 PM 39.0°F3.9°C 37.2°F2.9°C 93% 21.0 mph E33.8 kmh E 34.0 mph54.7 kmh 29.63 in1003.4 mb 0.09 in2.3 mm 0.00 in0.0 mm 0.28 in7.1 mm
04:30 PM 39.0°F3.9°C 37.2°F2.9°C 93% 21.0 mph E33.8 kmh E 34.0 mph54.7 kmh 29.63 in1003.4 mb 0.09 in2.3 mm 0.00 in0.0 mm 0.28 in7.1 mm
04:33 PM 39.0°F3.9°C 37.2°F2.9°C 93% 19.0 mph E30.6 kmh E 34.0 mph54.7 kmh 29.63 in1003.4 mb 0.09 in2.3 mm 0.00 in0.0 mm 0.29 in7.4 mm
04:36 PM 39.0°F3.9°C 37.2°F2.9°C 93% 17.0 mph E27.4 kmh E 28.0 mph45.1 kmh 29.62 in1003.0 mb 0.09 in2.3 mm 0.00 in0.0 mm 0.30 in7.6 mm
04:39 PM 39.0°F3.9°C 37.2°F2.9°C 93% 16.0 mph E25.7 kmh E 27.0 mph43.5 kmh 29.62 in1003.0 mb 0.09 in2.3 mm 0.00 in0.0 mm 0.30 in7.6 mm
04:42 PM 39.0°F3.9°C 37.2°F2.9°C 93% 15.0 mph E24.1 kmh E 26.0 mph41.8 kmh 29.62 in1003.0 mb 0.09 in2.3 mm 0.00 in0.0 mm 0.31 in7.9 mm
04:45 PM 39.0°F3.9°C 37.6°F3.1°C 94% 15.0 mph E24.1 kmh E 25.0 mph40.2 kmh 29.62 in1003.0 mb 0.09 in2.3 mm 0.00 in0.0 mm 0.31 in7.9 mm
04:48 PM 39.0°F3.9°C 37.2°F2.9°C 93% 15.0 mph E24.1 kmh E 25.0 mph40.2 kmh 29.62 in1003.0 mb 0.09 in2.3 mm 0.00 in0.0 mm 0.31 in7.9 mm
04:51 PM 39.0°F3.9°C 37.4°F3.0°C 94% 15.0 mph E24.1 kmh E 25.0 mph40.2 kmh 29.62 in1003.0 mb 0.09 in2.3 mm 0.00 in0.0 mm 0.31 in7.9 mm
04:54 PM 39.0°F3.9°C 37.4°F3.0°C 94% 16.0 mph E25.7 kmh E 29.0 mph46.7 kmh 29.62 in1003.0 mb 0.09 in2.3 mm 0.00 in0.0 mm 0.32 in8.1 mm
04:57 PM 39.0°F3.9°C 37.4°F3.0°C 94% 16.0 mph E25.7 kmh E 29.0 mph46.7 kmh 29.61 in1002.7 mb 0.09 in2.3 mm 0.00 in0.0 mm 0.33 in8.4 mm
05:00 PM 39.2°F4.0°C 37.6°F3.1°C 94% 15.0 mph E24.1 kmh E 29.0 mph46.7 kmh 29.61 in1002.7 mb 0.09 in2.3 mm 0.00 in0.0 mm 0.33 in8.4 mm
05:03 PM 39.2°F4.0°C 37.6°F3.1°C 94% 15.0 mph E24.1 kmh E 29.0 mph46.7 kmh 29.61 in1002.7 mb 0.09 in2.3 mm 0.00 in0.0 mm 0.33 in8.4 mm
05:06 PM 39.4°F4.1°C 37.8°F3.2°C 94% 14.0 mph E22.5 kmh E 24.0 mph38.6 kmh 29.61 in1002.7 mb 0.09 in2.3 mm 0.00 in0.0 mm 0.34 in8.6 mm
05:09 PM 39.4°F4.1°C 37.8°F3.2°C 94% 14.0 mph E22.5 kmh E 24.0 mph38.6 kmh 29.61 in1002.7 mb 0.09 in2.3 mm 0.00 in0.0 mm 0.35 in8.9 mm
05:12 PM 39.2°F4.0°C 37.6°F3.1°C 94% 14.0 mph E22.5 kmh E 26.0 mph41.8 kmh 29.61 in1002.7 mb 0.09 in2.3 mm 0.00 in0.0 mm 0.35 in8.9 mm
05:15 PM 39.0°F3.9°C 37.2°F2.9°C 93% 15.0 mph E24.1 kmh E 30.0 mph48.3 kmh 29.61 in1002.7 mb 0.09 in2.3 mm 0.00 in0.0 mm 0.35 in8.9 mm
05:18 PM 39.0°F3.9°C 37.4°F3.0°C 94% 16.0 mph E25.7 kmh E 30.0 mph48.3 kmh 29.61 in1002.7 mb 0.09 in2.3 mm 0.00 in0.0 mm 0.35 in8.9 mm
05:21 PM 39.0°F3.9°C 37.4°F3.0°C 94% 16.0 mph E25.7 kmh E 31.0 mph49.9 kmh 29.61 in1002.7 mb 0.09 in2.3 mm 0.00 in0.0 mm 0.36 in9.1 mm
05:24 PM 39.0°F3.9°C 37.6°F3.1°C 94% 14.0 mph E22.5 kmh E 31.0 mph49.9 kmh 29.61 in1002.7 mb 0.08 in2.0 mm 0.00 in0.0 mm 0.36 in9.1 mm
05:27 PM 39.0°F3.9°C 37.6°F3.1°C 94% 13.0 mph E20.9 kmh E 31.0 mph49.9 kmh 29.61 in1002.7 mb 0.09 in2.3 mm 0.20 in5.1 mm 0.37 in9.4 mm
05:30 PM 38.8°F3.8°C 37.4°F3.0°C 94% 14.0 mph E22.5 kmh E 31.0 mph49.9 kmh 29.60 in1002.4 mb 0.09 in2.3 mm 0.00 in0.0 mm 0.38 in9.7 mm
05:33 PM 38.8°F3.8°C 37.4°F3.0°C 94% 16.0 mph E25.7 kmh E 31.0 mph49.9 kmh 29.60 in1002.4 mb 0.09 in2.3 mm 0.00 in0.0 mm 0.38 in9.7 mm
05:36 PM 38.8°F3.8°C 37.4°F3.0°C 94% 17.0 mph E27.4 kmh E 31.0 mph49.9 kmh 29.60 in1002.4 mb 0.09 in2.3 mm 0.00 in0.0 mm 0.39 in9.9 mm
05:39 PM 38.8°F3.8°C 36.9°F2.7°C 93% 15.0 mph E24.1 kmh E 25.0 mph40.2 kmh 29.60 in1002.4 mb 0.09 in2.3 mm 0.00 in0.0 mm 0.39 in9.9 mm
05:42 PM 38.7°F3.7°C 37.0°F2.8°C 94% 14.0 mph E22.5 kmh E 29.0 mph46.7 kmh 29.60 in1002.4 mb 0.09 in2.3 mm 0.00 in0.0 mm 0.39 in9.9 mm
05:45 PM 38.7°F3.7°C 37.0°F2.8°C 94% 14.0 mph E22.5 kmh E 29.0 mph46.7 kmh 29.60 in1002.4 mb 0.09 in2.3 mm 0.00 in0.0 mm 0.39 in9.9 mm
05:48 PM 38.7°F3.7°C 36.9°F2.7°C 93% 13.0 mph E20.9 kmh E 29.0 mph46.7 kmh 29.59 in1002.0 mb 0.09 in2.3 mm 0.00 in0.0 mm 0.40 in10.2 mm
05:51 PM 38.5°F3.6°C 36.7°F2.6°C 93% 13.0 mph E20.9 kmh E 29.0 mph46.7 kmh 29.59 in1002.0 mb 0.09 in2.3 mm 0.00 in0.0 mm 0.40 in10.2 mm
05:54 PM 38.5°F3.6°C 36.9°F2.7°C 94% 14.0 mph E22.5 kmh E 26.0 mph41.8 kmh 29.59 in1002.0 mb 0.09 in2.3 mm 0.00 in0.0 mm 0.41 in10.4 mm
05:57 PM 38.5°F3.6°C 36.9°F2.7°C 94% 14.0 mph E22.5 kmh E 26.0 mph41.8 kmh 29.59 in1002.0 mb 0.08 in2.0 mm 0.00 in0.0 mm 0.41 in10.4 mm
06:00 PM 38.5°F3.6°C 36.9°F2.7°C 94% 12.0 mph E19.3 kmh E 26.0 mph41.8 kmh 29.59 in1002.0 mb 0.08 in2.0 mm 0.00 in0.0 mm 0.41 in10.4 mm
06:03 PM 38.3°F3.5°C 36.7°F2.6°C 94% 12.0 mph E19.3 kmh E 24.0 mph38.6 kmh 29.59 in1002.0 mb 0.09 in2.3 mm 0.20 in5.1 mm 0.42 in10.7 mm
06:06 PM 38.3°F3.5°C 36.7°F2.6°C 94% 12.0 mph E19.3 kmh E 21.0 mph33.8 kmh 29.58 in1001.7 mb 0.09 in2.3 mm 0.00 in0.0 mm 0.43 in10.9 mm
06:09 PM 38.5°F3.6°C 36.9°F2.7°C 94% 11.0 mph E17.7 kmh E 21.0 mph33.8 kmh 29.58 in1001.7 mb 0.08 in2.0 mm 0.00 in0.0 mm 0.43 in10.9 mm
06:12 PM 38.3°F3.5°C 36.7°F2.6°C 94% 12.0 mph E19.3 kmh E 25.0 mph40.2 kmh 29.58 in1001.7 mb 0.09 in2.3 mm 0.20 in5.1 mm 0.43 in10.9 mm
06:15 PM 38.3°F3.5°C 36.7°F2.6°C 94% 13.0 mph E20.9 kmh E 29.0 mph46.7 kmh 29.57 in1001.4 mb 0.09 in2.3 mm 0.00 in0.0 mm 0.44 in11.2 mm
06:18 PM 38.3°F3.5°C 36.7°F2.6°C 94% 13.0 mph E20.9 kmh E 29.0 mph46.7 kmh 29.57 in1001.4 mb 0.09 in2.3 mm 0.00 in0.0 mm 0.44 in11.2 mm
06:21 PM 38.5°F3.6°C 36.9°F2.7°C 94% 13.0 mph E20.9 kmh E 29.0 mph46.7 kmh 29.58 in1001.7 mb 0.09 in2.3 mm 0.00 in0.0 mm 0.45 in11.4 mm
06:24 PM 38.3°F3.5°C 36.7°F2.6°C 94% 13.0 mph E20.9 kmh E 29.0 mph46.7 kmh 29.57 in1001.4 mb 0.09 in2.3 mm 0.00 in0.0 mm 0.46 in11.7 mm
06:27 PM 38.3°F3.5°C 36.7°F2.6°C 94% 13.0 mph E20.9 kmh E 23.0 mph37.0 kmh 29.57 in1001.4 mb 0.09 in2.3 mm 0.00 in0.0 mm 0.46 in11.7 mm
06:30 PM 38.5°F3.6°C 36.9°F2.7°C 94% 13.0 mph E20.9 kmh E 22.0 mph35.4 kmh 29.57 in1001.4 mb 0.08 in2.0 mm 0.00 in0.0 mm 0.46 in11.7 mm
06:33 PM 38.5°F3.6°C 36.9°F2.7°C 94% 12.0 mph E19.3 kmh E 22.0 mph35.4 kmh 29.57 in1001.4 mb 0.09 in2.3 mm 0.20 in5.1 mm 0.46 in11.7 mm
06:36 PM 38.5°F3.6°C 36.9°F2.7°C 94% 12.0 mph E19.3 kmh E 25.0 mph40.2 kmh 29.57 in1001.4 mb 0.08 in2.0 mm 0.00 in0.0 mm 0.46 in11.7 mm
06:39 PM 38.7°F3.7°C 37.0°F2.8°C 94% 13.0 mph E20.9 kmh E 29.0 mph46.7 kmh 29.57 in1001.4 mb 0.08 in2.0 mm 0.00 in0.0 mm 0.46 in11.7 mm
06:42 PM 38.7°F3.7°C 37.0°F2.8°C 94% 14.0 mph E22.5 kmh E 29.0 mph46.7 kmh 29.57 in1001.4 mb 0.08 in2.0 mm 0.00 in0.0 mm 0.47 in11.9 mm
06:45 PM 38.7°F3.7°C 37.0°F2.8°C 94% 13.0 mph E20.9 kmh E 29.0 mph46.7 kmh 29.57 in1001.4 mb 0.08 in2.0 mm 0.00 in0.0 mm 0.47 in11.9 mm
06:48 PM 38.7°F3.7°C 37.0°F2.8°C 94% 13.0 mph E20.9 kmh E 25.0 mph40.2 kmh 29.57 in1001.4 mb 0.08 in2.0 mm 0.00 in0.0 mm 0.48 in12.2 mm
06:51 PM 38.7°F3.7°C 37.0°F2.8°C 94% 14.0 mph E22.5 kmh E 27.0 mph43.5 kmh 29.57 in1001.4 mb 0.08 in2.0 mm 0.00 in0.0 mm 0.48 in12.2 mm
06:54 PM 38.7°F3.7°C 37.0°F2.8°C 94% 13.0 mph E20.9 kmh E 27.0 mph43.5 kmh 29.56 in1001.0 mb 0.08 in2.0 mm 0.00 in0.0 mm 0.49 in12.4 mm
06:57 PM 38.7°F3.7°C 37.0°F2.8°C 94% 13.0 mph E20.9 kmh E 27.0 mph43.5 kmh 29.56 in1001.0 mb 0.08 in2.0 mm 0.00 in0.0 mm 0.49 in12.4 mm
07:00 PM 38.7°F3.7°C 37.0°F2.8°C 94% 13.0 mph E20.9 kmh E 27.0 mph43.5 kmh 29.56 in1001.0 mb 0.07 in1.8 mm 0.00 in0.0 mm 0.49 in12.4 mm
07:03 PM 38.5°F3.6°C 36.9°F2.7°C 94% 13.0 mph E20.9 kmh E 32.0 mph51.5 kmh 29.56 in1001.0 mb 0.07 in1.8 mm 0.00 in0.0 mm 0.50 in12.7 mm
07:06 PM 38.5°F3.6°C 36.9°F2.7°C 94% 14.0 mph E22.5 kmh E 32.0 mph51.5 kmh 29.56 in1001.0 mb 0.08 in2.0 mm 0.20 in5.1 mm 0.50 in12.7 mm
07:09 PM 38.5°F3.6°C 36.9°F2.7°C 94% 13.0 mph E20.9 kmh E 32.0 mph51.5 kmh 29.56 in1001.0 mb 0.08 in2.0 mm 0.00 in0.0 mm 0.50 in12.7 mm
07:12 PM 38.5°F3.6°C 36.9°F2.7°C 94% 13.0 mph E20.9 kmh E 32.0 mph51.5 kmh 29.55 in1000.7 mb 0.08 in2.0 mm 0.00 in0.0 mm 0.51 in13.0 mm
07:15 PM 38.7°F3.7°C 37.0°F2.8°C 94% 12.0 mph E19.3 kmh E 22.0 mph35.4 kmh 29.55 in1000.7 mb 0.07 in1.8 mm 0.00 in0.0 mm 0.51 in13.0 mm
07:18 PM 38.7°F3.7°C 37.0°F2.8°C 94% 12.0 mph E19.3 kmh E 22.0 mph35.4 kmh 29.55 in1000.7 mb 0.07 in1.8 mm 0.00 in0.0 mm 0.52 in13.2 mm
07:21 PM 38.8°F3.8°C 37.2°F2.9°C 94% 12.0 mph E19.3 kmh E 26.0 mph41.8 kmh 29.55 in1000.7 mb 0.07 in1.8 mm 0.00 in0.0 mm 0.52 in13.2 mm
07:24 PM 38.8°F3.8°C 37.4°F3.0°C 94% 12.0 mph E19.3 kmh E 28.0 mph45.1 kmh 29.55 in1000.7 mb 0.06 in1.5 mm 0.00 in0.0 mm 0.52 in13.2 mm
07:27 PM 39.0°F3.9°C 37.4°F3.0°C 94% 13.0 mph E20.9 kmh E 28.0 mph45.1 kmh 29.55 in1000.7 mb 0.06 in1.5 mm 0.00 in0.0 mm 0.52 in13.2 mm
07:30 PM 39.0°F3.9°C 37.6°F3.1°C 94% 14.0 mph E22.5 kmh E 28.0 mph45.1 kmh 29.54 in1000.3 mb 0.06 in1.5 mm 0.00 in0.0 mm 0.52 in13.2 mm
07:33 PM 39.0°F3.9°C 37.6°F3.1°C 94% 14.0 mph E22.5 kmh E 25.0 mph40.2 kmh 29.54 in1000.3 mb 0.06 in1.5 mm 0.00 in0.0 mm 0.52 in13.2 mm
07:36 PM 39.0°F3.9°C 37.6°F3.1°C 94% 14.0 mph E22.5 kmh E 23.0 mph37.0 kmh 29.54 in1000.3 mb 0.06 in1.5 mm 0.00 in0.0 mm 0.53 in13.5 mm
07:39 PM 39.0°F3.9°C 37.4°F3.0°C 94% 13.0 mph E20.9 kmh E 24.0 mph38.6 kmh 29.54 in1000.3 mb 0.06 in1.5 mm 0.00 in0.0 mm 0.53 in13.5 mm
07:42 PM 39.0°F3.9°C 37.4°F3.0°C 94% 14.0 mph E22.5 kmh E 28.0 mph45.1 kmh 29.54 in1000.3 mb 0.06 in1.5 mm 0.00 in0.0 mm 0.53 in13.5 mm
07:45 PM 39.0°F3.9°C 37.4°F3.0°C 94% 14.0 mph E22.5 kmh E 28.0 mph45.1 kmh 29.53 in1000.0 mb 0.06 in1.5 mm 0.00 in0.0 mm 0.54 in13.7 mm
07:48 PM 38.8°F3.8°C 37.4°F3.0°C 94% 12.0 mph E19.3 kmh E 28.0 mph45.1 kmh 29.54 in1000.3 mb 0.06 in1.5 mm 0.00 in0.0 mm 0.54 in13.7 mm
07:51 PM 38.8°F3.8°C 37.4°F3.0°C 94% 12.0 mph E19.3 kmh E 24.0 mph38.6 kmh 29.54 in1000.3 mb 0.06 in1.5 mm 0.00 in0.0 mm 0.54 in13.7 mm
07:54 PM 38.8°F3.8°C 37.4°F3.0°C 94% 13.0 mph E20.9 kmh E 25.0 mph40.2 kmh 29.54 in1000.3 mb 0.05 in1.3 mm 0.00 in0.0 mm 0.54 in13.7 mm
07:57 PM 38.8°F3.8°C 37.4°F3.0°C 94% 13.0 mph E20.9 kmh E 25.0 mph40.2 kmh 29.53 in1000.0 mb 0.06 in1.5 mm 0.20 in5.1 mm 0.54 in13.7 mm
08:00 PM 38.8°F3.8°C 37.2°F2.9°C 94% 13.0 mph E20.9 kmh E 25.0 mph40.2 kmh 29.53 in1000.0 mb 0.06 in1.5 mm 0.00 in0.0 mm 0.54 in13.7 mm
08:03 PM 38.8°F3.8°C 37.4°F3.0°C 94% 13.0 mph E20.9 kmh E 23.0 mph37.0 kmh 29.53 in1000.0 mb 0.06 in1.5 mm 0.00 in0.0 mm 0.55 in14.0 mm
08:06 PM 38.8°F3.8°C 37.4°F3.0°C 94% 13.0 mph E20.9 kmh E 28.0 mph45.1 kmh 29.53 in1000.0 mb 0.05 in1.3 mm 0.00 in0.0 mm 0.55 in14.0 mm
08:09 PM 38.8°F3.8°C 37.4°F3.0°C 94% 14.0 mph E22.5 kmh E 28.0 mph45.1 kmh 29.53 in1000.0 mb 0.05 in1.3 mm 0.00 in0.0 mm 0.55 in14.0 mm
08:12 PM 38.8°F3.8°C 37.4°F3.0°C 94% 14.0 mph E22.5 kmh E 28.0 mph45.1 kmh 29.52 in999.7 mb 0.04 in1.0 mm 0.00 in0.0 mm 0.55 in14.0 mm
08:15 PM 39.0°F3.9°C 37.4°F3.0°C 94% 12.0 mph E19.3 kmh E 26.0 mph41.8 kmh 29.52 in999.7 mb 0.04 in1.0 mm 0.00 in0.0 mm 0.55 in14.0 mm
08:18 PM 39.0°F3.9°C 37.4°F3.0°C 94% 11.0 mph E17.7 kmh E 26.0 mph41.8 kmh 29.52 in999.7 mb 0.03 in0.8 mm 0.00 in0.0 mm 0.55 in14.0 mm
08:21 PM 39.0°F3.9°C 37.4°F3.0°C 94% 10.0 mph E16.1 kmh E 20.0 mph32.2 kmh 29.52 in999.7 mb 0.03 in0.8 mm 0.00 in0.0 mm 0.55 in14.0 mm
08:24 PM 39.0°F3.9°C 37.4°F3.0°C 94% 10.0 mph E16.1 kmh E 20.0 mph32.2 kmh 29.52 in999.7 mb 0.03 in0.8 mm 0.00 in0.0 mm 0.55 in14.0 mm
08:27 PM 39.0°F3.9°C 37.4°F3.0°C 94% 10.0 mph E16.1 kmh E 27.0 mph43.5 kmh 29.51 in999.3 mb 0.04 in1.0 mm 0.20 in5.1 mm 0.56 in14.2 mm
08:30 PM 39.0°F3.9°C 37.4°F3.0°C 94% 11.0 mph ENE17.7 kmh ENE 32.0 mph51.5 kmh 29.51 in999.3 mb 0.04 in1.0 mm 0.00 in0.0 mm 0.56 in14.2 mm
08:33 PM 39.0°F3.9°C 37.6°F3.1°C 94% 11.0 mph ENE17.7 kmh ENE 32.0 mph51.5 kmh 29.51 in999.3 mb 0.04 in1.0 mm 0.00 in0.0 mm 0.56 in14.2 mm
08:36 PM 39.0°F3.9°C 37.6°F3.1°C 94% 12.0 mph ENE19.3 kmh ENE 32.0 mph51.5 kmh 29.51 in999.3 mb 0.03 in0.8 mm 0.00 in0.0 mm 0.56 in14.2 mm
08:39 PM 39.0°F3.9°C 37.6°F3.1°C 94% 12.0 mph ENE19.3 kmh ENE 32.0 mph51.5 kmh 29.51 in999.3 mb 0.04 in1.0 mm 0.20 in5.1 mm 0.57 in14.5 mm
08:42 PM 39.0°F3.9°C 37.6°F3.1°C 94% 11.0 mph ENE17.7 kmh ENE 25.0 mph40.2 kmh 29.51 in999.3 mb 0.04 in1.0 mm 0.00 in0.0 mm 0.57 in14.5 mm
08:45 PM 39.0°F3.9°C 37.6°F3.1°C 94% 11.0 mph ENE17.7 kmh ENE 26.0 mph41.8 kmh 29.50 in999.0 mb 0.03 in0.8 mm 0.00 in0.0 mm 0.57 in14.5 mm
08:48 PM 39.0°F3.9°C 37.6°F3.1°C 94% 11.0 mph ENE17.7 kmh ENE 26.0 mph41.8 kmh 29.50 in999.0 mb 0.03 in0.8 mm 0.00 in0.0 mm 0.57 in14.5 mm
08:51 PM 39.0°F3.9°C 37.6°F3.1°C 94% 12.0 mph E19.3 kmh E 26.0 mph41.8 kmh 29.50 in999.0 mb 0.03 in0.8 mm 0.00 in0.0 mm 0.57 in14.5 mm
08:54 PM 39.2°F4.0°C 37.6°F3.1°C 94% 11.0 mph E17.7 kmh E 22.0 mph35.4 kmh 29.50 in999.0 mb 0.03 in0.8 mm 0.00 in0.0 mm 0.57 in14.5 mm
08:57 PM 39.2°F4.0°C 37.6°F3.1°C 94% 11.0 mph E17.7 kmh E 28.0 mph45.1 kmh 29.50 in999.0 mb 0.02 in0.5 mm 0.00 in0.0 mm 0.57 in14.5 mm
09:00 PM 39.2°F4.0°C 37.6°F3.1°C 94% 11.0 mph E17.7 kmh E 28.0 mph45.1 kmh 29.49 in998.6 mb 0.03 in0.8 mm 0.01 in0.3 mm 0.57 in14.5 mm
09:03 PM 39.2°F4.0°C 37.6°F3.1°C 94% 11.0 mph E17.7 kmh E 28.0 mph45.1 kmh 29.49 in998.6 mb 0.02 in0.5 mm 0.00 in0.0 mm 0.57 in14.5 mm
09:06 PM 39.2°F4.0°C 37.6°F3.1°C 94% 12.0 mph E19.3 kmh E 26.0 mph41.8 kmh 29.48 in998.3 mb 0.02 in0.5 mm 0.00 in0.0 mm 0.57 in14.5 mm
09:09 PM 39.2°F4.0°C 37.6°F3.1°C 94% 13.0 mph E20.9 kmh E 27.0 mph43.5 kmh 29.48 in998.3 mb 0.02 in0.5 mm 0.00 in0.0 mm 0.57 in14.5 mm
09:12 PM 39.2°F4.0°C 37.6°F3.1°C 94% 13.0 mph ENE20.9 kmh ENE 27.0 mph43.5 kmh 29.48 in998.3 mb 0.03 in0.8 mm 0.20 in5.1 mm 0.58 in14.7 mm
09:15 PM 39.2°F4.0°C 37.6°F3.1°C 94% 12.0 mph ENE19.3 kmh ENE 27.0 mph43.5 kmh 29.48 in998.3 mb 0.03 in0.8 mm 0.00 in0.0 mm 0.58 in14.7 mm
09:18 PM 39.2°F4.0°C 37.6°F3.1°C 94% 12.0 mph E19.3 kmh E 26.0 mph41.8 kmh 29.47 in998.0 mb 0.03 in0.8 mm 0.00 in0.0 mm 0.58 in14.7 mm
09:21 PM 39.2°F4.0°C 37.6°F3.1°C 94% 13.0 mph E20.9 kmh E 28.0 mph45.1 kmh 29.47 in998.0 mb 0.03 in0.8 mm 0.00 in0.0 mm 0.58 in14.7 mm
09:24 PM 39.4°F4.1°C 37.8°F3.2°C 94% 14.0 mph E22.5 kmh E 28.0 mph45.1 kmh 29.47 in998.0 mb 0.03 in0.8 mm 0.00 in0.0 mm 0.58 in14.7 mm
09:27 PM 39.4°F4.1°C 37.8°F3.2°C 94% 15.0 mph E24.1 kmh E 28.0 mph45.1 kmh 29.47 in998.0 mb 0.02 in0.5 mm 0.00 in0.0 mm 0.58 in14.7 mm
09:30 PM 39.4°F4.1°C 37.8°F3.2°C 94% 14.0 mph E22.5 kmh E 28.0 mph45.1 kmh 29.47 in998.0 mb 0.02 in0.5 mm 0.00 in0.0 mm 0.58 in14.7 mm
09:33 PM 39.4°F4.1°C 37.8°F3.2°C 94% 13.0 mph E20.9 kmh E 28.0 mph45.1 kmh 29.47 in998.0 mb 0.02 in0.5 mm 0.00 in0.0 mm 0.58 in14.7 mm
09:36 PM 39.4°F4.1°C 37.8°F3.2°C 94% 14.0 mph E22.5 kmh E 26.0 mph41.8 kmh 29.46 in997.6 mb 0.02 in0.5 mm 0.00 in0.0 mm 0.58 in14.7 mm
09:39 PM 39.4°F4.1°C 37.8°F3.2°C 94% 14.0 mph E22.5 kmh E 26.0 mph41.8 kmh 29.46 in997.6 mb 0.02 in0.5 mm 0.00 in0.0 mm 0.58 in14.7 mm
09:42 PM 39.4°F4.1°C 37.8°F3.2°C 94% 14.0 mph E22.5 kmh E 29.0 mph46.7 kmh 29.46 in997.6 mb 0.02 in0.5 mm 0.00 in0.0 mm 0.59 in15.0 mm
09:45 PM 39.4°F4.1°C 37.8°F3.2°C 94% 13.0 mph E20.9 kmh E 29.0 mph46.7 kmh 29.46 in997.6 mb 0.02 in0.5 mm 0.00 in0.0 mm 0.59 in15.0 mm
09:48 PM 39.4°F4.1°C 37.8°F3.2°C 94% 13.0 mph E20.9 kmh E 29.0 mph46.7 kmh 29.46 in997.6 mb 0.02 in0.5 mm 0.00 in0.0 mm 0.59 in15.0 mm
09:51 PM 39.4°F4.1°C 37.8°F3.2°C 94% 12.0 mph E19.3 kmh E 24.0 mph38.6 kmh 29.46 in997.6 mb 0.02 in0.5 mm 0.00 in0.0 mm 0.59 in15.0 mm
09:54 PM 39.4°F4.1°C 37.8°F3.2°C 94% 13.0 mph E20.9 kmh E 25.0 mph40.2 kmh 29.46 in997.6 mb 0.02 in0.5 mm 0.00 in0.0 mm 0.59 in15.0 mm
09:57 PM 39.4°F4.1°C 37.8°F3.2°C 94% 13.0 mph E20.9 kmh E 25.0 mph40.2 kmh 29.46 in997.6 mb 0.03 in0.8 mm 0.20 in5.1 mm 0.60 in15.2 mm
10:00 PM 39.4°F4.1°C 37.8°F3.2°C 94% 13.0 mph E20.9 kmh E 25.0 mph40.2 kmh 29.45 in997.3 mb 0.02 in0.5 mm 0.00 in0.0 mm 0.60 in15.2 mm
10:03 PM 39.4°F4.1°C 37.8°F3.2°C 94% 13.0 mph E20.9 kmh E 24.0 mph38.6 kmh 29.45 in997.3 mb 0.02 in0.5 mm 0.00 in0.0 mm 0.60 in15.2 mm
10:06 PM 39.4°F4.1°C 37.8°F3.2°C 94% 13.0 mph E20.9 kmh E 25.0 mph40.2 kmh 29.45 in997.3 mb 0.02 in0.5 mm 0.00 in0.0 mm 0.60 in15.2 mm
10:09 PM 39.4°F4.1°C 37.8°F3.2°C 94% 13.0 mph E20.9 kmh E 25.0 mph40.2 kmh 29.45 in997.3 mb 0.02 in0.5 mm 0.00 in0.0 mm 0.60 in15.2 mm
10:12 PM 39.4°F4.1°C 37.8°F3.2°C 94% 14.0 mph E22.5 kmh E 25.0 mph40.2 kmh 29.45 in997.3 mb 0.02 in0.5 mm 0.00 in0.0 mm 0.60 in15.2 mm
10:15 PM 39.4°F4.1°C 37.8°F3.2°C 94% 14.0 mph E22.5 kmh E 26.0 mph41.8 kmh 29.45 in997.3 mb 0.02 in0.5 mm 0.00 in0.0 mm 0.60 in15.2 mm
10:18 PM 39.4°F4.1°C 37.8°F3.2°C 94% 14.0 mph E22.5 kmh E 26.0 mph41.8 kmh 29.44 in997.0 mb 0.02 in0.5 mm 0.00 in0.0 mm 0.60 in15.2 mm
10:21 PM 39.4°F4.1°C 37.8°F3.2°C 94% 14.0 mph E22.5 kmh E 29.0 mph46.7 kmh 29.44 in997.0 mb 0.02 in0.5 mm 0.00 in0.0 mm 0.61 in15.5 mm
10:24 PM 39.4°F4.1°C 37.8°F3.2°C 94% 13.0 mph E20.9 kmh E 29.0 mph46.7 kmh 29.44 in997.0 mb 0.02 in0.5 mm 0.00 in0.0 mm 0.61 in15.5 mm
10:27 PM 39.4°F4.1°C 37.8°F3.2°C 94% 12.0 mph E19.3 kmh E 29.0 mph46.7 kmh 29.44 in997.0 mb 0.02 in0.5 mm 0.00 in0.0 mm 0.61 in15.5 mm
10:30 PM 39.6°F4.2°C 37.9°F3.3°C 94% 13.0 mph E20.9 kmh E 29.0 mph46.7 kmh 29.43 in996.6 mb 0.02 in0.5 mm 0.00 in0.0 mm 0.61 in15.5 mm
10:33 PM 39.4°F4.1°C 37.8°F3.2°C 94% 13.0 mph E20.9 kmh E 27.0 mph43.5 kmh 29.43 in996.6 mb 0.03 in0.8 mm 0.20 in5.1 mm 0.61 in15.5 mm
10:36 PM 39.4°F4.1°C 37.8°F3.2°C 94% 14.0 mph ENE22.5 kmh ENE 24.0 mph38.6 kmh 29.43 in996.6 mb 0.03 in0.8 mm 0.00 in0.0 mm 0.61 in15.5 mm
10:39 PM 39.4°F4.1°C 37.8°F3.2°C 94% 14.0 mph ENE22.5 kmh ENE 38.0 mph61.2 kmh 29.43 in996.6 mb 0.03 in0.8 mm 0.00 in0.0 mm 0.61 in15.5 mm
10:42 PM 39.4°F4.1°C 37.8°F3.2°C 94% 15.0 mph ENE24.1 kmh ENE 38.0 mph61.2 kmh 29.43 in996.6 mb 0.02 in0.5 mm 0.00 in0.0 mm 0.61 in15.5 mm
10:45 PM 39.4°F4.1°C 37.8°F3.2°C 94% 16.0 mph E25.7 kmh E 38.0 mph61.2 kmh 29.43 in996.6 mb 0.02 in0.5 mm 0.00 in0.0 mm 0.61 in15.5 mm
10:48 PM 39.4°F4.1°C 37.8°F3.2°C 94% 16.0 mph ENE25.7 kmh ENE 38.0 mph61.2 kmh 29.43 in996.6 mb 0.02 in0.5 mm 0.00 in0.0 mm 0.61 in15.5 mm
10:51 PM 39.4°F4.1°C 37.8°F3.2°C 94% 16.0 mph ENE25.7 kmh ENE 31.0 mph49.9 kmh 29.43 in996.6 mb 0.02 in0.5 mm 0.00 in0.0 mm 0.61 in15.5 mm
10:54 PM 39.4°F4.1°C 37.8°F3.2°C 94% 15.0 mph ENE24.1 kmh ENE 28.0 mph45.1 kmh 29.43 in996.6 mb 0.02 in0.5 mm 0.00 in0.0 mm 0.61 in15.5 mm
10:57 PM 39.4°F4.1°C 37.8°F3.2°C 94% 14.0 mph ENE22.5 kmh ENE 28.0 mph45.1 kmh 29.42 in996.3 mb 0.02 in0.5 mm 0.00 in0.0 mm 0.61 in15.5 mm
11:00 PM 39.6°F4.2°C 37.9°F3.3°C 94% 13.0 mph ENE20.9 kmh ENE 28.0 mph45.1 kmh 29.42 in996.3 mb 0.02 in0.5 mm 0.00 in0.0 mm 0.37 in9.4 mm
11:03 PM 39.4°F4.1°C 37.8°F3.2°C 94% 13.0 mph ENE20.9 kmh ENE 27.0 mph43.5 kmh 29.42 in996.3 mb 0.02 in0.5 mm 0.00 in0.0 mm 0.01 in0.3 mm
11:06 PM 39.4°F4.1°C 37.8°F3.2°C 94% 14.0 mph E22.5 kmh E 33.0 mph53.1 kmh 29.41 in995.9 mb 0.02 in0.5 mm 0.00 in0.0 mm 0.01 in0.3 mm
11:09 PM 39.4°F4.1°C 37.8°F3.2°C 94% 15.0 mph E24.1 kmh E 33.0 mph53.1 kmh 29.41 in995.9 mb 0.02 in0.5 mm 0.00 in0.0 mm 0.01 in0.3 mm
11:12 PM 39.4°F4.1°C 37.8°F3.2°C 94% 14.0 mph ENE22.5 kmh ENE 33.0 mph53.1 kmh 29.41 in995.9 mb 0.03 in0.8 mm 0.20 in5.1 mm 0.02 in0.5 mm
11:15 PM 39.6°F4.2°C 37.9°F3.3°C 94% 14.0 mph ENE22.5 kmh ENE 33.0 mph53.1 kmh 29.41 in995.9 mb 0.03 in0.8 mm 0.00 in0.0 mm 0.02 in0.5 mm
11:18 PM 39.4°F4.1°C 37.8°F3.2°C 94% 13.0 mph ENE20.9 kmh ENE 28.0 mph45.1 kmh 29.41 in995.9 mb 0.03 in0.8 mm 0.00 in0.0 mm 0.02 in0.5 mm
11:21 PM 39.6°F4.2°C 37.9°F3.3°C 94% 13.0 mph ENE20.9 kmh ENE 29.0 mph46.7 kmh 29.41 in995.9 mb 0.02 in0.5 mm 0.00 in0.0 mm 0.02 in0.5 mm
11:24 PM 39.4°F4.1°C 37.8°F3.2°C 94% 14.0 mph ENE22.5 kmh ENE 29.0 mph46.7 kmh 29.41 in995.9 mb 0.02 in0.5 mm 0.00 in0.0 mm 0.02 in0.5 mm
11:27 PM 39.4°F4.1°C 37.8°F3.2°C 94% 14.0 mph ENE22.5 kmh ENE 29.0 mph46.7 kmh 29.41 in995.9 mb 0.02 in0.5 mm 0.00 in0.0 mm 0.02 in0.5 mm
11:30 PM 39.6°F4.2°C 37.9°F3.3°C 94% 14.0 mph ENE22.5 kmh ENE 29.0 mph46.7 kmh 29.40 in995.6 mb 0.02 in0.5 mm 0.00 in0.0 mm 0.02 in0.5 mm
11:33 PM 39.6°F4.2°C 37.9°F3.3°C 94% 13.0 mph ENE20.9 kmh ENE 29.0 mph46.7 kmh 29.41 in995.9 mb 0.02 in0.5 mm 0.00 in0.0 mm 0.02 in0.5 mm
11:36 PM 39.6°F4.2°C 37.9°F3.3°C 94% 13.0 mph ENE20.9 kmh ENE 29.0 mph46.7 kmh 29.40 in995.6 mb 0.02 in0.5 mm 0.00 in0.0 mm 0.02 in0.5 mm
11:39 PM 39.6°F4.2°C 37.9°F3.3°C 94% 13.0 mph ENE20.9 kmh ENE 28.0 mph45.1 kmh 29.40 in995.6 mb 0.02 in0.5 mm 0.00 in0.0 mm 0.02 in0.5 mm
11:42 PM 39.6°F4.2°C 37.9°F3.3°C 94% 14.0 mph ENE22.5 kmh ENE 31.0 mph49.9 kmh 29.40 in995.6 mb 0.02 in0.5 mm 0.00 in0.0 mm 0.02 in0.5 mm
11:45 PM 39.6°F4.2°C 37.9°F3.3°C 94% 14.0 mph ENE22.5 kmh ENE 31.0 mph49.9 kmh 29.40 in995.6 mb 0.02 in0.5 mm 0.00 in0.0 mm 0.02 in0.5 mm
11:48 PM 39.6°F4.2°C 37.9°F3.3°C 94% 13.0 mph E20.9 kmh E 31.0 mph49.9 kmh 29.40 in995.6 mb 0.02 in0.5 mm 0.00 in0.0 mm 0.02 in0.5 mm
11:51 PM 39.6°F4.2°C 37.9°F3.3°C 94% 13.0 mph E20.9 kmh E 31.0 mph49.9 kmh 29.39 in995.3 mb 0.02 in0.5 mm 0.00 in0.0 mm 0.02 in0.5 mm
11:54 PM 39.6°F4.2°C 37.9°F3.3°C 94% 12.0 mph ENE19.3 kmh ENE 28.0 mph45.1 kmh 29.40 in995.6 mb 0.02 in0.5 mm 0.00 in0.0 mm 0.02 in0.5 mm
11:57 PM 39.6°F4.2°C 37.9°F3.3°C 94% 11.0 mph ENE17.7 kmh ENE 28.0 mph45.1 kmh 29.39 in995.3 mb 0.02 in0.5 mm 0.00 in0.0 mm 0.02 in0.5 mm